<?xml version="1.0" encoding="UTF-8" standalone="no" ?>
<gpx xmlns="http://www.topografix.com/GPX/1/1" xmlns:xsi="http://www.w3.org/2001/XMLSchema-instance" xsi:schemaLocation="http://www.topografix.com/GPX/1/1 http://www.topografix.com/GPX/1/1/gpx.xsd" version="1.1" creator="VisuGPX - https://www.visugpx.com">
  <metadata>
    <name>Col de Menée - Grimone</name>
    <desc><![CDATA[Drôme.
Boucle au départ du col de Menée (sortie du tunnel).
Passage par les Sucettes de Borne.
Nuit en refuge à Grimone.
Retour par le mont Jocou et le mont Barral.]]></desc>
  </metadata>
  <trk>
    <name><![CDATA[Col de Menée_Grimone]]></name>
    <trkseg>
      <trkpt lat="44.75694" lon="5.6024">
        <ele>1408</ele>
        <time>2017-12-11T15:25:46Z</time>
      </trkpt>
      <trkpt lat="44.75684" lon="5.60254">
        <ele>1407</ele>
        <time>2017-12-11T15:27:46Z</time>
      </trkpt>
      <trkpt lat="44.75674" lon="5.60283">
        <ele>1414</ele>
        <time>2017-12-11T15:29:46Z</time>
      </trkpt>
      <trkpt lat="44.75658" lon="5.60301">
        <ele>1419</ele>
        <time>2017-12-11T15:31:46Z</time>
      </trkpt>
      <trkpt lat="44.75641" lon="5.60318">
        <ele>1426</ele>
        <time>2017-12-11T15:33:46Z</time>
      </trkpt>
      <trkpt lat="44.75635" lon="5.60329">
        <ele>1430</ele>
        <time>2017-12-11T15:35:46Z</time>
      </trkpt>
      <trkpt lat="44.75627" lon="5.60335">
        <ele>1433</ele>
        <time>2017-12-11T15:37:46Z</time>
      </trkpt>
      <trkpt lat="44.7562" lon="5.60335">
        <ele>1434</ele>
        <time>2017-12-11T15:39:46Z</time>
      </trkpt>
      <trkpt lat="44.75616" lon="5.60332">
        <ele>1433</ele>
        <time>2017-12-11T15:41:46Z</time>
      </trkpt>
      <trkpt lat="44.7561" lon="5.60297">
        <ele>1423</ele>
        <time>2017-12-11T15:43:46Z</time>
      </trkpt>
      <trkpt lat="44.75606" lon="5.60286">
        <ele>1420</ele>
        <time>2017-12-11T15:45:46Z</time>
      </trkpt>
      <trkpt lat="44.75599" lon="5.60278">
        <ele>1418</ele>
        <time>2017-12-11T15:47:46Z</time>
      </trkpt>
      <trkpt lat="44.75586" lon="5.60273">
        <ele>1419</ele>
        <time>2017-12-11T15:49:46Z</time>
      </trkpt>
      <trkpt lat="44.75554" lon="5.60271">
        <ele>1420</ele>
        <time>2017-12-11T15:51:46Z</time>
      </trkpt>
      <trkpt lat="44.75545" lon="5.60272">
        <ele>1420</ele>
        <time>2017-12-11T15:53:46Z</time>
      </trkpt>
      <trkpt lat="44.75533" lon="5.60277">
        <ele>1423</ele>
        <time>2017-12-11T15:55:46Z</time>
      </trkpt>
      <trkpt lat="44.75514" lon="5.60286">
        <ele>1427</ele>
        <time>2017-12-11T15:57:46Z</time>
      </trkpt>
      <trkpt lat="44.75501" lon="5.60295">
        <ele>1431</ele>
        <time>2017-12-11T15:59:46Z</time>
      </trkpt>
      <trkpt lat="44.75489" lon="5.60307">
        <ele>1433</ele>
        <time>2017-12-11T16:01:46Z</time>
      </trkpt>
      <trkpt lat="44.75476" lon="5.60324">
        <ele>1436</ele>
        <time>2017-12-11T16:03:46Z</time>
      </trkpt>
      <trkpt lat="44.75456" lon="5.60349">
        <ele>1441</ele>
        <time>2017-12-11T16:05:46Z</time>
      </trkpt>
      <trkpt lat="44.75445" lon="5.60361">
        <ele>1443</ele>
        <time>2017-12-11T16:07:46Z</time>
      </trkpt>
      <trkpt lat="44.75431" lon="5.60374">
        <ele>1446</ele>
        <time>2017-12-11T16:09:46Z</time>
      </trkpt>
      <trkpt lat="44.75409" lon="5.60391">
        <ele>1447</ele>
        <time>2017-12-11T16:11:46Z</time>
      </trkpt>
      <trkpt lat="44.75386" lon="5.60416">
        <ele>1448</ele>
        <time>2017-12-11T16:13:46Z</time>
      </trkpt>
      <trkpt lat="44.7537" lon="5.60437">
        <ele>1446</ele>
        <time>2017-12-11T16:15:46Z</time>
      </trkpt>
      <trkpt lat="44.75365" lon="5.60445">
        <ele>1446</ele>
        <time>2017-12-11T16:17:46Z</time>
      </trkpt>
      <trkpt lat="44.75355" lon="5.60466">
        <ele>1446</ele>
        <time>2017-12-11T16:19:46Z</time>
      </trkpt>
      <trkpt lat="44.75353" lon="5.60482">
        <ele>1448</ele>
        <time>2017-12-11T16:21:46Z</time>
      </trkpt>
      <trkpt lat="44.75346" lon="5.60517">
        <ele>1452</ele>
        <time>2017-12-11T16:23:46Z</time>
      </trkpt>
      <trkpt lat="44.75341" lon="5.60555">
        <ele>1458</ele>
        <time>2017-12-11T16:25:46Z</time>
      </trkpt>
      <trkpt lat="44.75336" lon="5.60578">
        <ele>1460</ele>
        <time>2017-12-11T16:27:46Z</time>
      </trkpt>
      <trkpt lat="44.75329" lon="5.60604">
        <ele>1463</ele>
        <time>2017-12-11T16:29:46Z</time>
      </trkpt>
      <trkpt lat="44.75321" lon="5.60632">
        <ele>1466</ele>
        <time>2017-12-11T16:31:46Z</time>
      </trkpt>
      <trkpt lat="44.75312" lon="5.60658">
        <ele>1468</ele>
        <time>2017-12-11T16:33:46Z</time>
      </trkpt>
      <trkpt lat="44.75303" lon="5.60685">
        <ele>1468</ele>
        <time>2017-12-11T16:35:46Z</time>
      </trkpt>
      <trkpt lat="44.75296" lon="5.60702">
        <ele>1466</ele>
        <time>2017-12-11T16:37:46Z</time>
      </trkpt>
      <trkpt lat="44.75291" lon="5.60725">
        <ele>1467</ele>
        <time>2017-12-11T16:39:46Z</time>
      </trkpt>
      <trkpt lat="44.75291" lon="5.60753">
        <ele>1472</ele>
        <time>2017-12-11T16:41:46Z</time>
      </trkpt>
      <trkpt lat="44.7529" lon="5.60791">
        <ele>1473</ele>
        <time>2017-12-11T16:43:46Z</time>
      </trkpt>
      <trkpt lat="44.75291" lon="5.60839">
        <ele>1477</ele>
        <time>2017-12-11T16:45:46Z</time>
      </trkpt>
      <trkpt lat="44.75292" lon="5.60866">
        <ele>1480</ele>
        <time>2017-12-11T16:47:46Z</time>
      </trkpt>
      <trkpt lat="44.75292" lon="5.60894">
        <ele>1482</ele>
        <time>2017-12-11T16:49:46Z</time>
      </trkpt>
      <trkpt lat="44.75291" lon="5.60932">
        <ele>1485</ele>
        <time>2017-12-11T16:51:46Z</time>
      </trkpt>
      <trkpt lat="44.75288" lon="5.60966">
        <ele>1488</ele>
        <time>2017-12-11T16:53:46Z</time>
      </trkpt>
      <trkpt lat="44.75283" lon="5.6101">
        <ele>1490</ele>
        <time>2017-12-11T16:55:46Z</time>
      </trkpt>
      <trkpt lat="44.75276" lon="5.61055">
        <ele>1491</ele>
        <time>2017-12-11T16:57:46Z</time>
      </trkpt>
      <trkpt lat="44.75274" lon="5.61077">
        <ele>1492</ele>
        <time>2017-12-11T16:59:46Z</time>
      </trkpt>
      <trkpt lat="44.75272" lon="5.61106">
        <ele>1493</ele>
        <time>2017-12-11T17:01:46Z</time>
      </trkpt>
      <trkpt lat="44.75275" lon="5.6113">
        <ele>1496</ele>
        <time>2017-12-11T17:03:46Z</time>
      </trkpt>
      <trkpt lat="44.7528" lon="5.61161">
        <ele>1501</ele>
        <time>2017-12-11T17:05:46Z</time>
      </trkpt>
      <trkpt lat="44.75285" lon="5.61201">
        <ele>1510</ele>
        <time>2017-12-11T17:07:46Z</time>
      </trkpt>
      <trkpt lat="44.75288" lon="5.61232">
        <ele>1516</ele>
        <time>2017-12-11T17:09:46Z</time>
      </trkpt>
      <trkpt lat="44.75289" lon="5.61248">
        <ele>1519</ele>
        <time>2017-12-11T17:11:46Z</time>
      </trkpt>
      <trkpt lat="44.75286" lon="5.61259">
        <ele>1520</ele>
        <time>2017-12-11T17:13:46Z</time>
      </trkpt>
      <trkpt lat="44.75279" lon="5.61268">
        <ele>1519</ele>
        <time>2017-12-11T17:15:46Z</time>
      </trkpt>
      <trkpt lat="44.75272" lon="5.61275">
        <ele>1518</ele>
        <time>2017-12-11T17:17:46Z</time>
      </trkpt>
      <trkpt lat="44.75267" lon="5.61283">
        <ele>1518</ele>
        <time>2017-12-11T17:19:46Z</time>
      </trkpt>
      <trkpt lat="44.75262" lon="5.61293">
        <ele>1519</ele>
        <time>2017-12-11T17:21:46Z</time>
      </trkpt>
      <trkpt lat="44.75256" lon="5.61298">
        <ele>1518</ele>
        <time>2017-12-11T17:23:46Z</time>
      </trkpt>
      <trkpt lat="44.75245" lon="5.61303">
        <ele>1514</ele>
        <time>2017-12-11T17:25:46Z</time>
      </trkpt>
      <trkpt lat="44.75239" lon="5.6131">
        <ele>1514</ele>
        <time>2017-12-11T17:27:46Z</time>
      </trkpt>
      <trkpt lat="44.75229" lon="5.61328">
        <ele>1516</ele>
        <time>2017-12-11T17:29:46Z</time>
      </trkpt>
      <trkpt lat="44.75217" lon="5.61353">
        <ele>1519</ele>
        <time>2017-12-11T17:31:46Z</time>
      </trkpt>
      <trkpt lat="44.75204" lon="5.61373">
        <ele>1521</ele>
        <time>2017-12-11T17:33:46Z</time>
      </trkpt>
      <trkpt lat="44.75195" lon="5.61395">
        <ele>1525</ele>
        <time>2017-12-11T17:35:46Z</time>
      </trkpt>
      <trkpt lat="44.75187" lon="5.6141">
        <ele>1528</ele>
        <time>2017-12-11T17:37:46Z</time>
      </trkpt>
      <trkpt lat="44.75178" lon="5.61419">
        <ele>1527</ele>
        <time>2017-12-11T17:39:46Z</time>
      </trkpt>
      <trkpt lat="44.75164" lon="5.61429">
        <ele>1524</ele>
        <time>2017-12-11T17:41:46Z</time>
      </trkpt>
      <trkpt lat="44.75155" lon="5.6144">
        <ele>1524</ele>
        <time>2017-12-11T17:43:46Z</time>
      </trkpt>
      <trkpt lat="44.75146" lon="5.61452">
        <ele>1526</ele>
        <time>2017-12-11T17:45:46Z</time>
      </trkpt>
      <trkpt lat="44.75136" lon="5.61467">
        <ele>1528</ele>
        <time>2017-12-11T17:47:46Z</time>
      </trkpt>
      <trkpt lat="44.75126" lon="5.61489">
        <ele>1533</ele>
        <time>2017-12-11T17:49:46Z</time>
      </trkpt>
      <trkpt lat="44.7512" lon="5.61511">
        <ele>1538</ele>
        <time>2017-12-11T17:51:46Z</time>
      </trkpt>
      <trkpt lat="44.75113" lon="5.61535">
        <ele>1542</ele>
        <time>2017-12-11T17:53:46Z</time>
      </trkpt>
      <trkpt lat="44.75102" lon="5.61559">
        <ele>1544</ele>
        <time>2017-12-11T17:55:46Z</time>
      </trkpt>
      <trkpt lat="44.75091" lon="5.61581">
        <ele>1545</ele>
        <time>2017-12-11T17:57:46Z</time>
      </trkpt>
      <trkpt lat="44.7508" lon="5.61599">
        <ele>1545</ele>
        <time>2017-12-11T17:59:46Z</time>
      </trkpt>
      <trkpt lat="44.75065" lon="5.61623">
        <ele>1549</ele>
        <time>2017-12-11T18:01:46Z</time>
      </trkpt>
      <trkpt lat="44.7505" lon="5.61651">
        <ele>1554</ele>
        <time>2017-12-11T18:03:46Z</time>
      </trkpt>
      <trkpt lat="44.7504" lon="5.61672">
        <ele>1559</ele>
        <time>2017-12-11T18:05:46Z</time>
      </trkpt>
      <trkpt lat="44.75031" lon="5.61684">
        <ele>1561</ele>
        <time>2017-12-11T18:07:46Z</time>
      </trkpt>
      <trkpt lat="44.75024" lon="5.6169">
        <ele>1562</ele>
        <time>2017-12-11T18:09:46Z</time>
      </trkpt>
      <trkpt lat="44.75016" lon="5.61691">
        <ele>1561</ele>
        <time>2017-12-11T18:11:46Z</time>
      </trkpt>
      <trkpt lat="44.7501" lon="5.61688">
        <ele>1560</ele>
        <time>2017-12-11T18:13:46Z</time>
      </trkpt>
      <trkpt lat="44.74997" lon="5.61673">
        <ele>1554</ele>
        <time>2017-12-11T18:15:46Z</time>
      </trkpt>
      <trkpt lat="44.74989" lon="5.61668">
        <ele>1553</ele>
        <time>2017-12-11T18:17:46Z</time>
      </trkpt>
      <trkpt lat="44.74981" lon="5.61668">
        <ele>1553</ele>
        <time>2017-12-11T18:19:46Z</time>
      </trkpt>
      <trkpt lat="44.74963" lon="5.61671">
        <ele>1555</ele>
        <time>2017-12-11T18:21:46Z</time>
      </trkpt>
      <trkpt lat="44.74945" lon="5.61673">
        <ele>1556</ele>
        <time>2017-12-11T18:23:46Z</time>
      </trkpt>
      <trkpt lat="44.74937" lon="5.61677">
        <ele>1558</ele>
        <time>2017-12-11T18:25:46Z</time>
      </trkpt>
      <trkpt lat="44.74925" lon="5.61688">
        <ele>1562</ele>
        <time>2017-12-11T18:27:46Z</time>
      </trkpt>
      <trkpt lat="44.74913" lon="5.61696">
        <ele>1565</ele>
        <time>2017-12-11T18:29:46Z</time>
      </trkpt>
      <trkpt lat="44.74889" lon="5.61701">
        <ele>1565</ele>
        <time>2017-12-11T18:31:46Z</time>
      </trkpt>
      <trkpt lat="44.74874" lon="5.61709">
        <ele>1566</ele>
        <time>2017-12-11T18:33:46Z</time>
      </trkpt>
      <trkpt lat="44.74858" lon="5.61714">
        <ele>1566</ele>
        <time>2017-12-11T18:35:46Z</time>
      </trkpt>
      <trkpt lat="44.7484" lon="5.61719">
        <ele>1567</ele>
        <time>2017-12-11T18:37:46Z</time>
      </trkpt>
      <trkpt lat="44.74831" lon="5.61723">
        <ele>1567</ele>
        <time>2017-12-11T18:39:46Z</time>
      </trkpt>
      <trkpt lat="44.74822" lon="5.61733">
        <ele>1569</ele>
        <time>2017-12-11T18:41:46Z</time>
      </trkpt>
      <trkpt lat="44.74814" lon="5.61741">
        <ele>1571</ele>
        <time>2017-12-11T18:43:46Z</time>
      </trkpt>
      <trkpt lat="44.74801" lon="5.61752">
        <ele>1572</ele>
        <time>2017-12-11T18:45:46Z</time>
      </trkpt>
      <trkpt lat="44.74788" lon="5.61761">
        <ele>1573</ele>
        <time>2017-12-11T18:47:46Z</time>
      </trkpt>
      <trkpt lat="44.74761" lon="5.6179">
        <ele>1576</ele>
        <time>2017-12-11T18:49:46Z</time>
      </trkpt>
      <trkpt lat="44.7475" lon="5.61804">
        <ele>1578</ele>
        <time>2017-12-11T18:51:46Z</time>
      </trkpt>
      <trkpt lat="44.74735" lon="5.61818">
        <ele>1581</ele>
        <time>2017-12-11T18:53:46Z</time>
      </trkpt>
      <trkpt lat="44.74734" lon="5.61818">
        <ele>1581</ele>
        <time>2017-12-11T18:55:46Z</time>
      </trkpt>
      <trkpt lat="44.74718" lon="5.6183">
        <ele>1582</ele>
        <time>2017-12-11T18:57:46Z</time>
      </trkpt>
      <trkpt lat="44.74706" lon="5.61837">
        <ele>1582</ele>
        <time>2017-12-11T18:59:46Z</time>
      </trkpt>
      <trkpt lat="44.74698" lon="5.61851">
        <ele>1583</ele>
        <time>2017-12-11T19:01:46Z</time>
      </trkpt>
      <trkpt lat="44.74684" lon="5.61881">
        <ele>1586</ele>
        <time>2017-12-11T19:03:46Z</time>
      </trkpt>
      <trkpt lat="44.74681" lon="5.61915">
        <ele>1590</ele>
        <time>2017-12-11T19:05:46Z</time>
      </trkpt>
      <trkpt lat="44.74676" lon="5.61938">
        <ele>1592</ele>
        <time>2017-12-11T19:07:46Z</time>
      </trkpt>
      <trkpt lat="44.7467" lon="5.6195">
        <ele>1593</ele>
        <time>2017-12-11T19:09:46Z</time>
      </trkpt>
      <trkpt lat="44.74662" lon="5.61962">
        <ele>1594</ele>
        <time>2017-12-11T19:11:46Z</time>
      </trkpt>
      <trkpt lat="44.7464" lon="5.61987">
        <ele>1595</ele>
        <time>2017-12-11T19:13:46Z</time>
      </trkpt>
      <trkpt lat="44.74636" lon="5.61995">
        <ele>1595</ele>
        <time>2017-12-11T19:15:46Z</time>
      </trkpt>
      <trkpt lat="44.74643" lon="5.62013">
        <ele>1598</ele>
        <time>2017-12-11T19:17:46Z</time>
      </trkpt>
      <trkpt lat="44.74647" lon="5.62027">
        <ele>1600</ele>
        <time>2017-12-11T19:19:46Z</time>
      </trkpt>
      <trkpt lat="44.74655" lon="5.62048">
        <ele>1603</ele>
        <time>2017-12-11T19:21:46Z</time>
      </trkpt>
      <trkpt lat="44.74662" lon="5.62051">
        <ele>1604</ele>
        <time>2017-12-11T19:23:46Z</time>
      </trkpt>
      <trkpt lat="44.74671" lon="5.62059">
        <ele>1607</ele>
        <time>2017-12-11T19:25:46Z</time>
      </trkpt>
      <trkpt lat="44.7469" lon="5.62069">
        <ele>1611</ele>
        <time>2017-12-11T19:27:46Z</time>
      </trkpt>
      <trkpt lat="44.74698" lon="5.62073">
        <ele>1613</ele>
        <time>2017-12-11T19:29:46Z</time>
      </trkpt>
      <trkpt lat="44.74708" lon="5.62074">
        <ele>1615</ele>
        <time>2017-12-11T19:31:46Z</time>
      </trkpt>
      <trkpt lat="44.74716" lon="5.62078">
        <ele>1616</ele>
        <time>2017-12-11T19:33:46Z</time>
      </trkpt>
      <trkpt lat="44.74728" lon="5.62082">
        <ele>1618</ele>
        <time>2017-12-11T19:35:46Z</time>
      </trkpt>
      <trkpt lat="44.74735" lon="5.62092">
        <ele>1620</ele>
        <time>2017-12-11T19:37:46Z</time>
      </trkpt>
      <trkpt lat="44.74739" lon="5.62102">
        <ele>1621</ele>
        <time>2017-12-11T19:39:46Z</time>
      </trkpt>
      <trkpt lat="44.74736" lon="5.62114">
        <ele>1621</ele>
        <time>2017-12-11T19:41:46Z</time>
      </trkpt>
      <trkpt lat="44.74725" lon="5.62124">
        <ele>1620</ele>
        <time>2017-12-11T19:43:46Z</time>
      </trkpt>
      <trkpt lat="44.74717" lon="5.62132">
        <ele>1620</ele>
        <time>2017-12-11T19:45:46Z</time>
      </trkpt>
      <trkpt lat="44.74705" lon="5.62142">
        <ele>1619</ele>
        <time>2017-12-11T19:47:46Z</time>
      </trkpt>
      <trkpt lat="44.74698" lon="5.62149">
        <ele>1619</ele>
        <time>2017-12-11T19:49:46Z</time>
      </trkpt>
      <trkpt lat="44.74682" lon="5.62156">
        <ele>1617</ele>
        <time>2017-12-11T19:51:46Z</time>
      </trkpt>
      <trkpt lat="44.74675" lon="5.62166">
        <ele>1617</ele>
        <time>2017-12-11T19:53:46Z</time>
      </trkpt>
      <trkpt lat="44.74663" lon="5.62187">
        <ele>1617</ele>
        <time>2017-12-11T19:55:46Z</time>
      </trkpt>
      <trkpt lat="44.74659" lon="5.62207">
        <ele>1617</ele>
        <time>2017-12-11T19:57:46Z</time>
      </trkpt>
      <trkpt lat="44.74651" lon="5.62225">
        <ele>1617</ele>
        <time>2017-12-11T19:59:46Z</time>
      </trkpt>
      <trkpt lat="44.74647" lon="5.62239">
        <ele>1617</ele>
        <time>2017-12-11T20:01:46Z</time>
      </trkpt>
      <trkpt lat="44.74641" lon="5.6226">
        <ele>1617</ele>
        <time>2017-12-11T20:03:46Z</time>
      </trkpt>
      <trkpt lat="44.74631" lon="5.62287">
        <ele>1617</ele>
        <time>2017-12-11T20:05:46Z</time>
      </trkpt>
      <trkpt lat="44.74621" lon="5.62303">
        <ele>1617</ele>
        <time>2017-12-11T20:07:46Z</time>
      </trkpt>
      <trkpt lat="44.74616" lon="5.62319">
        <ele>1617</ele>
        <time>2017-12-11T20:09:46Z</time>
      </trkpt>
      <trkpt lat="44.74603" lon="5.62335">
        <ele>1618</ele>
        <time>2017-12-11T20:11:46Z</time>
      </trkpt>
      <trkpt lat="44.74594" lon="5.62343">
        <ele>1619</ele>
        <time>2017-12-11T20:13:46Z</time>
      </trkpt>
      <trkpt lat="44.74581" lon="5.6235">
        <ele>1620</ele>
        <time>2017-12-11T20:15:46Z</time>
      </trkpt>
      <trkpt lat="44.74572" lon="5.62356">
        <ele>1620</ele>
        <time>2017-12-11T20:17:46Z</time>
      </trkpt>
      <trkpt lat="44.74556" lon="5.62389">
        <ele>1625</ele>
        <time>2017-12-11T20:19:46Z</time>
      </trkpt>
      <trkpt lat="44.74545" lon="5.62404">
        <ele>1627</ele>
        <time>2017-12-11T20:21:46Z</time>
      </trkpt>
      <trkpt lat="44.74533" lon="5.624">
        <ele>1626</ele>
        <time>2017-12-11T20:23:46Z</time>
      </trkpt>
      <trkpt lat="44.74524" lon="5.62399">
        <ele>1625</ele>
        <time>2017-12-11T20:25:46Z</time>
      </trkpt>
      <trkpt lat="44.74512" lon="5.62394">
        <ele>1623</ele>
        <time>2017-12-11T20:27:46Z</time>
      </trkpt>
      <trkpt lat="44.74498" lon="5.62378">
        <ele>1620</ele>
        <time>2017-12-11T20:29:46Z</time>
      </trkpt>
      <trkpt lat="44.74488" lon="5.62375">
        <ele>1619</ele>
        <time>2017-12-11T20:31:46Z</time>
      </trkpt>
      <trkpt lat="44.74486" lon="5.62366">
        <ele>1618</ele>
        <time>2017-12-11T20:33:46Z</time>
      </trkpt>
      <trkpt lat="44.74478" lon="5.62363">
        <ele>1617</ele>
        <time>2017-12-11T20:35:46Z</time>
      </trkpt>
      <trkpt lat="44.74455" lon="5.62344">
        <ele>1615</ele>
        <time>2017-12-11T20:37:46Z</time>
      </trkpt>
      <trkpt lat="44.74447" lon="5.62339">
        <ele>1614</ele>
        <time>2017-12-11T20:39:46Z</time>
      </trkpt>
      <trkpt lat="44.74428" lon="5.62345">
        <ele>1615</ele>
        <time>2017-12-11T20:41:46Z</time>
      </trkpt>
      <trkpt lat="44.74418" lon="5.62341">
        <ele>1615</ele>
        <time>2017-12-11T20:43:46Z</time>
      </trkpt>
      <trkpt lat="44.74396" lon="5.62339">
        <ele>1616</ele>
        <time>2017-12-11T20:45:46Z</time>
      </trkpt>
      <trkpt lat="44.74385" lon="5.62334">
        <ele>1616</ele>
        <time>2017-12-11T20:47:46Z</time>
      </trkpt>
      <trkpt lat="44.74375" lon="5.62343">
        <ele>1617</ele>
        <time>2017-12-11T20:49:46Z</time>
      </trkpt>
      <trkpt lat="44.74362" lon="5.62352">
        <ele>1618</ele>
        <time>2017-12-11T20:51:46Z</time>
      </trkpt>
      <trkpt lat="44.7434" lon="5.62365">
        <ele>1619</ele>
        <time>2017-12-11T20:53:46Z</time>
      </trkpt>
      <trkpt lat="44.74331" lon="5.62373">
        <ele>1620</ele>
        <time>2017-12-11T20:55:46Z</time>
      </trkpt>
      <trkpt lat="44.7432" lon="5.6238">
        <ele>1620</ele>
        <time>2017-12-11T20:57:46Z</time>
      </trkpt>
      <trkpt lat="44.743" lon="5.62389">
        <ele>1619</ele>
        <time>2017-12-11T20:59:46Z</time>
      </trkpt>
      <trkpt lat="44.74291" lon="5.62387">
        <ele>1619</ele>
        <time>2017-12-11T21:01:46Z</time>
      </trkpt>
      <trkpt lat="44.74275" lon="5.62378">
        <ele>1620</ele>
        <time>2017-12-11T21:03:46Z</time>
      </trkpt>
      <trkpt lat="44.74263" lon="5.62372">
        <ele>1621</ele>
        <time>2017-12-11T21:05:46Z</time>
      </trkpt>
      <trkpt lat="44.74253" lon="5.62355">
        <ele>1624</ele>
        <time>2017-12-11T21:07:46Z</time>
      </trkpt>
      <trkpt lat="44.74248" lon="5.6235">
        <ele>1625</ele>
        <time>2017-12-11T21:09:46Z</time>
      </trkpt>
      <trkpt lat="44.74245" lon="5.62335">
        <ele>1627</ele>
        <time>2017-12-11T21:11:46Z</time>
      </trkpt>
      <trkpt lat="44.74244" lon="5.62323">
        <ele>1630</ele>
        <time>2017-12-11T21:13:46Z</time>
      </trkpt>
      <trkpt lat="44.74242" lon="5.62309">
        <ele>1634</ele>
        <time>2017-12-11T21:15:46Z</time>
      </trkpt>
      <trkpt lat="44.74239" lon="5.62302">
        <ele>1636</ele>
        <time>2017-12-11T21:17:46Z</time>
      </trkpt>
      <trkpt lat="44.74229" lon="5.62293">
        <ele>1639</ele>
        <time>2017-12-11T21:19:46Z</time>
      </trkpt>
      <trkpt lat="44.74218" lon="5.62293">
        <ele>1640</ele>
        <time>2017-12-11T21:21:46Z</time>
      </trkpt>
      <trkpt lat="44.74207" lon="5.62301">
        <ele>1639</ele>
        <time>2017-12-11T21:23:46Z</time>
      </trkpt>
      <trkpt lat="44.74198" lon="5.62313">
        <ele>1636</ele>
        <time>2017-12-11T21:25:46Z</time>
      </trkpt>
      <trkpt lat="44.74192" lon="5.6232">
        <ele>1634</ele>
        <time>2017-12-11T21:27:46Z</time>
      </trkpt>
      <trkpt lat="44.74176" lon="5.62331">
        <ele>1631</ele>
        <time>2017-12-11T21:29:46Z</time>
      </trkpt>
      <trkpt lat="44.7416" lon="5.62341">
        <ele>1629</ele>
        <time>2017-12-11T21:31:46Z</time>
      </trkpt>
      <trkpt lat="44.74146" lon="5.62347">
        <ele>1627</ele>
        <time>2017-12-11T21:33:46Z</time>
      </trkpt>
      <trkpt lat="44.74141" lon="5.62352">
        <ele>1626</ele>
        <time>2017-12-11T21:35:46Z</time>
      </trkpt>
      <trkpt lat="44.74133" lon="5.62366">
        <ele>1622</ele>
        <time>2017-12-11T21:37:46Z</time>
      </trkpt>
      <trkpt lat="44.74127" lon="5.62379">
        <ele>1618</ele>
        <time>2017-12-11T21:39:46Z</time>
      </trkpt>
      <trkpt lat="44.74118" lon="5.62395">
        <ele>1613</ele>
        <time>2017-12-11T21:41:46Z</time>
      </trkpt>
      <trkpt lat="44.7411" lon="5.62413">
        <ele>1608</ele>
        <time>2017-12-11T21:43:46Z</time>
      </trkpt>
      <trkpt lat="44.74105" lon="5.62424">
        <ele>1606</ele>
        <time>2017-12-11T21:45:46Z</time>
      </trkpt>
      <trkpt lat="44.74097" lon="5.62434">
        <ele>1604</ele>
        <time>2017-12-11T21:47:46Z</time>
      </trkpt>
      <trkpt lat="44.74094" lon="5.62443">
        <ele>1601</ele>
        <time>2017-12-11T21:49:46Z</time>
      </trkpt>
      <trkpt lat="44.74088" lon="5.6245">
        <ele>1599</ele>
        <time>2017-12-11T21:51:46Z</time>
      </trkpt>
      <trkpt lat="44.74066" lon="5.62464">
        <ele>1593</ele>
        <time>2017-12-11T21:53:46Z</time>
      </trkpt>
      <trkpt lat="44.74058" lon="5.62464">
        <ele>1593</ele>
        <time>2017-12-11T21:55:46Z</time>
      </trkpt>
      <trkpt lat="44.74053" lon="5.62468">
        <ele>1591</ele>
        <time>2017-12-11T21:57:46Z</time>
      </trkpt>
      <trkpt lat="44.74047" lon="5.62484">
        <ele>1585</ele>
        <time>2017-12-11T21:59:46Z</time>
      </trkpt>
      <trkpt lat="44.74035" lon="5.6249">
        <ele>1582</ele>
        <time>2017-12-11T22:01:46Z</time>
      </trkpt>
      <trkpt lat="44.74028" lon="5.62497">
        <ele>1579</ele>
        <time>2017-12-11T22:03:46Z</time>
      </trkpt>
      <trkpt lat="44.74019" lon="5.62502">
        <ele>1577</ele>
        <time>2017-12-11T22:05:46Z</time>
      </trkpt>
      <trkpt lat="44.7401" lon="5.62505">
        <ele>1575</ele>
        <time>2017-12-11T22:07:46Z</time>
      </trkpt>
      <trkpt lat="44.73993" lon="5.62506">
        <ele>1573</ele>
        <time>2017-12-11T22:09:46Z</time>
      </trkpt>
      <trkpt lat="44.73983" lon="5.62507">
        <ele>1571</ele>
        <time>2017-12-11T22:11:46Z</time>
      </trkpt>
      <trkpt lat="44.73965" lon="5.62511">
        <ele>1567</ele>
        <time>2017-12-11T22:13:46Z</time>
      </trkpt>
      <trkpt lat="44.73947" lon="5.62515">
        <ele>1563</ele>
        <time>2017-12-11T22:15:46Z</time>
      </trkpt>
      <trkpt lat="44.73917" lon="5.62512">
        <ele>1558</ele>
        <time>2017-12-11T22:17:46Z</time>
      </trkpt>
      <trkpt lat="44.73895" lon="5.62506">
        <ele>1552</ele>
        <time>2017-12-11T22:19:46Z</time>
      </trkpt>
      <trkpt lat="44.73877" lon="5.62502">
        <ele>1547</ele>
        <time>2017-12-11T22:21:46Z</time>
      </trkpt>
      <trkpt lat="44.73857" lon="5.62505">
        <ele>1540</ele>
        <time>2017-12-11T22:23:46Z</time>
      </trkpt>
      <trkpt lat="44.73842" lon="5.62505">
        <ele>1535</ele>
        <time>2017-12-11T22:25:46Z</time>
      </trkpt>
      <trkpt lat="44.7382" lon="5.62499">
        <ele>1529</ele>
        <time>2017-12-11T22:27:46Z</time>
      </trkpt>
      <trkpt lat="44.73797" lon="5.62493">
        <ele>1522</ele>
        <time>2017-12-11T22:29:46Z</time>
      </trkpt>
      <trkpt lat="44.73787" lon="5.62493">
        <ele>1519</ele>
        <time>2017-12-11T22:31:46Z</time>
      </trkpt>
      <trkpt lat="44.73767" lon="5.62495">
        <ele>1512</ele>
        <time>2017-12-11T22:33:46Z</time>
      </trkpt>
      <trkpt lat="44.73753" lon="5.62498">
        <ele>1506</ele>
        <time>2017-12-11T22:35:46Z</time>
      </trkpt>
      <trkpt lat="44.73744" lon="5.62501">
        <ele>1503</ele>
        <time>2017-12-11T22:37:46Z</time>
      </trkpt>
      <trkpt lat="44.73735" lon="5.62507">
        <ele>1499</ele>
        <time>2017-12-11T22:39:46Z</time>
      </trkpt>
      <trkpt lat="44.73725" lon="5.62511">
        <ele>1495</ele>
        <time>2017-12-11T22:41:46Z</time>
      </trkpt>
      <trkpt lat="44.73713" lon="5.62514">
        <ele>1490</ele>
        <time>2017-12-11T22:43:46Z</time>
      </trkpt>
      <trkpt lat="44.73698" lon="5.62505">
        <ele>1486</ele>
        <time>2017-12-11T22:45:46Z</time>
      </trkpt>
      <trkpt lat="44.73674" lon="5.62495">
        <ele>1479</ele>
        <time>2017-12-11T22:47:46Z</time>
      </trkpt>
      <trkpt lat="44.73666" lon="5.62489">
        <ele>1477</ele>
        <time>2017-12-11T22:49:46Z</time>
      </trkpt>
      <trkpt lat="44.73653" lon="5.62479">
        <ele>1473</ele>
        <time>2017-12-11T22:51:46Z</time>
      </trkpt>
      <trkpt lat="44.73627" lon="5.62458">
        <ele>1466</ele>
        <time>2017-12-11T22:53:46Z</time>
      </trkpt>
      <trkpt lat="44.73609" lon="5.62441">
        <ele>1460</ele>
        <time>2017-12-11T22:55:46Z</time>
      </trkpt>
      <trkpt lat="44.73596" lon="5.62434">
        <ele>1456</ele>
        <time>2017-12-11T22:57:46Z</time>
      </trkpt>
      <trkpt lat="44.73588" lon="5.62423">
        <ele>1454</ele>
        <time>2017-12-11T22:59:46Z</time>
      </trkpt>
      <trkpt lat="44.73575" lon="5.62416">
        <ele>1450</ele>
        <time>2017-12-11T23:01:46Z</time>
      </trkpt>
      <trkpt lat="44.73565" lon="5.62408">
        <ele>1447</ele>
        <time>2017-12-11T23:03:46Z</time>
      </trkpt>
      <trkpt lat="44.73554" lon="5.62396">
        <ele>1445</ele>
        <time>2017-12-11T23:05:46Z</time>
      </trkpt>
      <trkpt lat="44.73543" lon="5.62386">
        <ele>1442</ele>
        <time>2017-12-11T23:07:46Z</time>
      </trkpt>
      <trkpt lat="44.73531" lon="5.62376">
        <ele>1439</ele>
        <time>2017-12-11T23:09:46Z</time>
      </trkpt>
      <trkpt lat="44.73519" lon="5.62365">
        <ele>1436</ele>
        <time>2017-12-11T23:11:46Z</time>
      </trkpt>
      <trkpt lat="44.73504" lon="5.62351">
        <ele>1432</ele>
        <time>2017-12-11T23:13:46Z</time>
      </trkpt>
      <trkpt lat="44.73499" lon="5.62344">
        <ele>1431</ele>
        <time>2017-12-11T23:15:46Z</time>
      </trkpt>
      <trkpt lat="44.73495" lon="5.62331">
        <ele>1432</ele>
        <time>2017-12-11T23:17:46Z</time>
      </trkpt>
      <trkpt lat="44.73473" lon="5.6232">
        <ele>1427</ele>
        <time>2017-12-11T23:19:46Z</time>
      </trkpt>
      <trkpt lat="44.73456" lon="5.62319">
        <ele>1423</ele>
        <time>2017-12-11T23:21:46Z</time>
      </trkpt>
      <trkpt lat="44.73437" lon="5.6234">
        <ele>1415</ele>
        <time>2017-12-11T23:23:46Z</time>
      </trkpt>
      <trkpt lat="44.73429" lon="5.62359">
        <ele>1410</ele>
        <time>2017-12-11T23:25:46Z</time>
      </trkpt>
      <trkpt lat="44.73425" lon="5.62367">
        <ele>1407</ele>
        <time>2017-12-11T23:27:46Z</time>
      </trkpt>
      <trkpt lat="44.73413" lon="5.62372">
        <ele>1403</ele>
        <time>2017-12-11T23:29:46Z</time>
      </trkpt>
      <trkpt lat="44.73419" lon="5.62386">
        <ele>1403</ele>
        <time>2017-12-11T23:31:46Z</time>
      </trkpt>
      <trkpt lat="44.7341" lon="5.62383">
        <ele>1401</ele>
        <time>2017-12-11T23:33:46Z</time>
      </trkpt>
      <trkpt lat="44.73395" lon="5.62376">
        <ele>1398</ele>
        <time>2017-12-11T23:35:46Z</time>
      </trkpt>
      <trkpt lat="44.73372" lon="5.62361">
        <ele>1394</ele>
        <time>2017-12-11T23:37:46Z</time>
      </trkpt>
      <trkpt lat="44.73355" lon="5.62345">
        <ele>1391</ele>
        <time>2017-12-11T23:39:46Z</time>
      </trkpt>
      <trkpt lat="44.73331" lon="5.62323">
        <ele>1387</ele>
        <time>2017-12-11T23:41:46Z</time>
      </trkpt>
      <trkpt lat="44.73319" lon="5.62303">
        <ele>1386</ele>
        <time>2017-12-11T23:43:46Z</time>
      </trkpt>
      <trkpt lat="44.73314" lon="5.62294">
        <ele>1386</ele>
        <time>2017-12-11T23:45:46Z</time>
      </trkpt>
      <trkpt lat="44.7331" lon="5.62285">
        <ele>1386</ele>
        <time>2017-12-11T23:47:46Z</time>
      </trkpt>
      <trkpt lat="44.73295" lon="5.62269">
        <ele>1384</ele>
        <time>2017-12-11T23:49:46Z</time>
      </trkpt>
      <trkpt lat="44.73282" lon="5.62256">
        <ele>1382</ele>
        <time>2017-12-11T23:51:46Z</time>
      </trkpt>
      <trkpt lat="44.73269" lon="5.62241">
        <ele>1380</ele>
        <time>2017-12-11T23:53:46Z</time>
      </trkpt>
      <trkpt lat="44.73259" lon="5.62232">
        <ele>1378</ele>
        <time>2017-12-11T23:55:46Z</time>
      </trkpt>
      <trkpt lat="44.73252" lon="5.62229">
        <ele>1377</ele>
        <time>2017-12-11T23:57:46Z</time>
      </trkpt>
      <trkpt lat="44.73236" lon="5.62218">
        <ele>1373</ele>
        <time>2017-12-11T23:59:46Z</time>
      </trkpt>
      <trkpt lat="44.73231" lon="5.62211">
        <ele>1373</ele>
        <time>2017-12-12T00:01:46Z</time>
      </trkpt>
      <trkpt lat="44.73223" lon="5.62195">
        <ele>1372</ele>
        <time>2017-12-12T00:03:46Z</time>
      </trkpt>
      <trkpt lat="44.73207" lon="5.62167">
        <ele>1370</ele>
        <time>2017-12-12T00:05:46Z</time>
      </trkpt>
      <trkpt lat="44.73195" lon="5.62158">
        <ele>1368</ele>
        <time>2017-12-12T00:07:46Z</time>
      </trkpt>
      <trkpt lat="44.73152" lon="5.62122">
        <ele>1362</ele>
        <time>2017-12-12T00:09:46Z</time>
      </trkpt>
      <trkpt lat="44.73136" lon="5.62112">
        <ele>1359</ele>
        <time>2017-12-12T00:11:46Z</time>
      </trkpt>
      <trkpt lat="44.73112" lon="5.62102">
        <ele>1355</ele>
        <time>2017-12-12T00:13:46Z</time>
      </trkpt>
      <trkpt lat="44.73096" lon="5.62088">
        <ele>1353</ele>
        <time>2017-12-12T00:15:46Z</time>
      </trkpt>
      <trkpt lat="44.73072" lon="5.62059">
        <ele>1348</ele>
        <time>2017-12-12T00:17:46Z</time>
      </trkpt>
      <trkpt lat="44.7306" lon="5.62032">
        <ele>1344</ele>
        <time>2017-12-12T00:19:46Z</time>
      </trkpt>
      <trkpt lat="44.73057" lon="5.6202">
        <ele>1343</ele>
        <time>2017-12-12T00:21:46Z</time>
      </trkpt>
      <trkpt lat="44.73059" lon="5.62006">
        <ele>1344</ele>
        <time>2017-12-12T00:23:46Z</time>
      </trkpt>
      <trkpt lat="44.73068" lon="5.61985">
        <ele>1347</ele>
        <time>2017-12-12T00:25:46Z</time>
      </trkpt>
      <trkpt lat="44.73072" lon="5.61969">
        <ele>1348</ele>
        <time>2017-12-12T00:27:46Z</time>
      </trkpt>
      <trkpt lat="44.73073" lon="5.61961">
        <ele>1348</ele>
        <time>2017-12-12T00:29:46Z</time>
      </trkpt>
      <trkpt lat="44.7307" lon="5.61951">
        <ele>1347</ele>
        <time>2017-12-12T00:31:46Z</time>
      </trkpt>
      <trkpt lat="44.73061" lon="5.61941">
        <ele>1344</ele>
        <time>2017-12-12T00:33:46Z</time>
      </trkpt>
      <trkpt lat="44.73057" lon="5.61931">
        <ele>1342</ele>
        <time>2017-12-12T00:35:46Z</time>
      </trkpt>
      <trkpt lat="44.73057" lon="5.61916">
        <ele>1342</ele>
        <time>2017-12-12T00:37:46Z</time>
      </trkpt>
      <trkpt lat="44.73054" lon="5.61906">
        <ele>1342</ele>
        <time>2017-12-12T00:39:46Z</time>
      </trkpt>
      <trkpt lat="44.7305" lon="5.61899">
        <ele>1342</ele>
        <time>2017-12-12T00:41:46Z</time>
      </trkpt>
      <trkpt lat="44.73033" lon="5.61886">
        <ele>1339</ele>
        <time>2017-12-12T00:43:46Z</time>
      </trkpt>
      <trkpt lat="44.73027" lon="5.61876">
        <ele>1338</ele>
        <time>2017-12-12T00:45:46Z</time>
      </trkpt>
      <trkpt lat="44.73023" lon="5.61864">
        <ele>1339</ele>
        <time>2017-12-12T00:47:46Z</time>
      </trkpt>
      <trkpt lat="44.73013" lon="5.61854">
        <ele>1338</ele>
        <time>2017-12-12T00:49:46Z</time>
      </trkpt>
      <trkpt lat="44.73006" lon="5.61845">
        <ele>1337</ele>
        <time>2017-12-12T00:51:46Z</time>
      </trkpt>
      <trkpt lat="44.73003" lon="5.61833">
        <ele>1339</ele>
        <time>2017-12-12T00:53:46Z</time>
      </trkpt>
      <trkpt lat="44.7299" lon="5.61824">
        <ele>1340</ele>
        <time>2017-12-12T00:55:46Z</time>
      </trkpt>
      <trkpt lat="44.72981" lon="5.61827">
        <ele>1339</ele>
        <time>2017-12-12T00:57:46Z</time>
      </trkpt>
      <trkpt lat="44.72941" lon="5.61851">
        <ele>1330</ele>
        <time>2017-12-12T00:59:46Z</time>
      </trkpt>
      <trkpt lat="44.72933" lon="5.61854">
        <ele>1329</ele>
        <time>2017-12-12T01:01:46Z</time>
      </trkpt>
      <trkpt lat="44.7292" lon="5.61852">
        <ele>1328</ele>
        <time>2017-12-12T01:03:46Z</time>
      </trkpt>
      <trkpt lat="44.72911" lon="5.61859">
        <ele>1325</ele>
        <time>2017-12-12T01:05:46Z</time>
      </trkpt>
      <trkpt lat="44.72897" lon="5.61865">
        <ele>1322</ele>
        <time>2017-12-12T01:07:46Z</time>
      </trkpt>
      <trkpt lat="44.72884" lon="5.61871">
        <ele>1319</ele>
        <time>2017-12-12T01:09:46Z</time>
      </trkpt>
      <trkpt lat="44.72863" lon="5.61882">
        <ele>1315</ele>
        <time>2017-12-12T01:11:46Z</time>
      </trkpt>
      <trkpt lat="44.72853" lon="5.61884">
        <ele>1314</ele>
        <time>2017-12-12T01:13:46Z</time>
      </trkpt>
      <trkpt lat="44.72839" lon="5.61896">
        <ele>1310</ele>
        <time>2017-12-12T01:15:46Z</time>
      </trkpt>
      <trkpt lat="44.72827" lon="5.61908">
        <ele>1307</ele>
        <time>2017-12-12T01:17:46Z</time>
      </trkpt>
      <trkpt lat="44.72815" lon="5.61919">
        <ele>1302</ele>
        <time>2017-12-12T01:19:46Z</time>
      </trkpt>
      <trkpt lat="44.72801" lon="5.61929">
        <ele>1297</ele>
        <time>2017-12-12T01:21:46Z</time>
      </trkpt>
      <trkpt lat="44.72795" lon="5.61936">
        <ele>1295</ele>
        <time>2017-12-12T01:23:46Z</time>
      </trkpt>
      <trkpt lat="44.72784" lon="5.6196">
        <ele>1288</ele>
        <time>2017-12-12T01:25:46Z</time>
      </trkpt>
      <trkpt lat="44.72777" lon="5.61969">
        <ele>1286</ele>
        <time>2017-12-12T01:27:46Z</time>
      </trkpt>
      <trkpt lat="44.7277" lon="5.61973">
        <ele>1284</ele>
        <time>2017-12-12T01:29:46Z</time>
      </trkpt>
      <trkpt lat="44.72764" lon="5.61965">
        <ele>1285</ele>
        <time>2017-12-12T01:31:46Z</time>
      </trkpt>
      <trkpt lat="44.72755" lon="5.61964">
        <ele>1283</ele>
        <time>2017-12-12T01:33:46Z</time>
      </trkpt>
      <trkpt lat="44.72746" lon="5.62008">
        <ele>1275</ele>
        <time>2017-12-12T01:35:46Z</time>
      </trkpt>
      <trkpt lat="44.72744" lon="5.62066">
        <ele>1258</ele>
        <time>2017-12-12T01:37:46Z</time>
      </trkpt>
      <trkpt lat="44.72747" lon="5.62069">
        <ele>1258</ele>
        <time>2017-12-12T01:39:46Z</time>
      </trkpt>
      <trkpt lat="44.7275" lon="5.62079">
        <ele>1256</ele>
        <time>2017-12-12T01:41:46Z</time>
      </trkpt>
      <trkpt lat="44.72756" lon="5.62099">
        <ele>1253</ele>
        <time>2017-12-12T01:43:46Z</time>
      </trkpt>
      <trkpt lat="44.72766" lon="5.62108">
        <ele>1252</ele>
        <time>2017-12-12T01:45:46Z</time>
      </trkpt>
      <trkpt lat="44.72778" lon="5.62104">
        <ele>1255</ele>
        <time>2017-12-12T01:47:46Z</time>
      </trkpt>
      <trkpt lat="44.72789" lon="5.62094">
        <ele>1258</ele>
        <time>2017-12-12T01:49:46Z</time>
      </trkpt>
      <trkpt lat="44.72803" lon="5.62092">
        <ele>1260</ele>
        <time>2017-12-12T01:51:46Z</time>
      </trkpt>
      <trkpt lat="44.72812" lon="5.62095">
        <ele>1261</ele>
        <time>2017-12-12T01:53:46Z</time>
      </trkpt>
      <trkpt lat="44.72813" lon="5.62103">
        <ele>1260</ele>
        <time>2017-12-12T01:55:46Z</time>
      </trkpt>
      <trkpt lat="44.72801" lon="5.62116">
        <ele>1256</ele>
        <time>2017-12-12T01:57:46Z</time>
      </trkpt>
      <trkpt lat="44.72796" lon="5.62132">
        <ele>1252</ele>
        <time>2017-12-12T01:59:46Z</time>
      </trkpt>
      <trkpt lat="44.72794" lon="5.62146">
        <ele>1250</ele>
        <time>2017-12-12T02:01:46Z</time>
      </trkpt>
      <trkpt lat="44.72791" lon="5.62156">
        <ele>1247</ele>
        <time>2017-12-12T02:03:46Z</time>
      </trkpt>
      <trkpt lat="44.72785" lon="5.62161">
        <ele>1245</ele>
        <time>2017-12-12T02:05:46Z</time>
      </trkpt>
      <trkpt lat="44.72779" lon="5.62159">
        <ele>1245</ele>
        <time>2017-12-12T02:07:46Z</time>
      </trkpt>
      <trkpt lat="44.72773" lon="5.62153">
        <ele>1245</ele>
        <time>2017-12-12T02:09:46Z</time>
      </trkpt>
      <trkpt lat="44.72756" lon="5.62149">
        <ele>1243</ele>
        <time>2017-12-12T02:11:46Z</time>
      </trkpt>
      <trkpt lat="44.72728" lon="5.62137">
        <ele>1242</ele>
        <time>2017-12-12T02:13:46Z</time>
      </trkpt>
      <trkpt lat="44.7271" lon="5.62129">
        <ele>1240</ele>
        <time>2017-12-12T02:15:46Z</time>
      </trkpt>
      <trkpt lat="44.72685" lon="5.62115">
        <ele>1238</ele>
        <time>2017-12-12T02:17:46Z</time>
      </trkpt>
      <trkpt lat="44.72669" lon="5.62109">
        <ele>1236</ele>
        <time>2017-12-12T02:19:46Z</time>
      </trkpt>
      <trkpt lat="44.72661" lon="5.62111">
        <ele>1234</ele>
        <time>2017-12-12T02:21:46Z</time>
      </trkpt>
      <trkpt lat="44.72655" lon="5.62124">
        <ele>1232</ele>
        <time>2017-12-12T02:23:46Z</time>
      </trkpt>
      <trkpt lat="44.72649" lon="5.62126">
        <ele>1231</ele>
        <time>2017-12-12T02:25:46Z</time>
      </trkpt>
      <trkpt lat="44.7264" lon="5.62125">
        <ele>1229</ele>
        <time>2017-12-12T02:27:46Z</time>
      </trkpt>
      <trkpt lat="44.72622" lon="5.62117">
        <ele>1226</ele>
        <time>2017-12-12T02:29:46Z</time>
      </trkpt>
      <trkpt lat="44.72569" lon="5.6211">
        <ele>1216</ele>
        <time>2017-12-12T02:31:46Z</time>
      </trkpt>
      <trkpt lat="44.72551" lon="5.62109">
        <ele>1214</ele>
        <time>2017-12-12T02:33:46Z</time>
      </trkpt>
      <trkpt lat="44.72524" lon="5.6211">
        <ele>1211</ele>
        <time>2017-12-12T02:35:46Z</time>
      </trkpt>
      <trkpt lat="44.72507" lon="5.62108">
        <ele>1209</ele>
        <time>2017-12-12T02:37:46Z</time>
      </trkpt>
      <trkpt lat="44.72479" lon="5.62105">
        <ele>1204</ele>
        <time>2017-12-12T02:39:46Z</time>
      </trkpt>
      <trkpt lat="44.72426" lon="5.62097">
        <ele>1194</ele>
        <time>2017-12-12T02:41:46Z</time>
      </trkpt>
      <trkpt lat="44.72423" lon="5.62092">
        <ele>1192</ele>
        <time>2017-12-12T02:43:46Z</time>
      </trkpt>
      <trkpt lat="44.72418" lon="5.62088">
        <ele>1190</ele>
        <time>2017-12-12T02:45:46Z</time>
      </trkpt>
      <trkpt lat="44.72407" lon="5.62092">
        <ele>1190</ele>
        <time>2017-12-12T02:47:46Z</time>
      </trkpt>
      <trkpt lat="44.72392" lon="5.62093">
        <ele>1188</ele>
        <time>2017-12-12T02:49:46Z</time>
      </trkpt>
      <trkpt lat="44.72382" lon="5.62093">
        <ele>1186</ele>
        <time>2017-12-12T02:51:46Z</time>
      </trkpt>
      <trkpt lat="44.72373" lon="5.62093">
        <ele>1185</ele>
        <time>2017-12-12T02:53:46Z</time>
      </trkpt>
      <trkpt lat="44.72359" lon="5.6209">
        <ele>1182</ele>
        <time>2017-12-12T02:55:46Z</time>
      </trkpt>
      <trkpt lat="44.72345" lon="5.62083">
        <ele>1179</ele>
        <time>2017-12-12T02:57:46Z</time>
      </trkpt>
      <trkpt lat="44.72336" lon="5.62077">
        <ele>1178</ele>
        <time>2017-12-12T02:59:46Z</time>
      </trkpt>
      <trkpt lat="44.72326" lon="5.62065">
        <ele>1178</ele>
        <time>2017-12-12T03:01:46Z</time>
      </trkpt>
      <trkpt lat="44.72318" lon="5.62048">
        <ele>1179</ele>
        <time>2017-12-12T03:03:46Z</time>
      </trkpt>
      <trkpt lat="44.7231" lon="5.62034">
        <ele>1178</ele>
        <time>2017-12-12T03:05:46Z</time>
      </trkpt>
      <trkpt lat="44.72302" lon="5.62028">
        <ele>1177</ele>
        <time>2017-12-12T03:07:46Z</time>
      </trkpt>
      <trkpt lat="44.72293" lon="5.62027">
        <ele>1175</ele>
        <time>2017-12-12T03:09:46Z</time>
      </trkpt>
      <trkpt lat="44.72281" lon="5.62028">
        <ele>1172</ele>
        <time>2017-12-12T03:11:46Z</time>
      </trkpt>
      <trkpt lat="44.72259" lon="5.62028">
        <ele>1168</ele>
        <time>2017-12-12T03:13:46Z</time>
      </trkpt>
      <trkpt lat="44.72238" lon="5.62029">
        <ele>1167</ele>
        <time>2017-12-12T03:15:46Z</time>
      </trkpt>
      <trkpt lat="44.72221" lon="5.62028">
        <ele>1168</ele>
        <time>2017-12-12T03:17:46Z</time>
      </trkpt>
      <trkpt lat="44.72208" lon="5.62025">
        <ele>1168</ele>
        <time>2017-12-12T03:19:46Z</time>
      </trkpt>
      <trkpt lat="44.72195" lon="5.6202">
        <ele>1167</ele>
        <time>2017-12-12T03:21:46Z</time>
      </trkpt>
      <trkpt lat="44.72171" lon="5.62005">
        <ele>1164</ele>
        <time>2017-12-12T03:23:46Z</time>
      </trkpt>
      <trkpt lat="44.72139" lon="5.61986">
        <ele>1160</ele>
        <time>2017-12-12T03:25:46Z</time>
      </trkpt>
      <trkpt lat="44.72132" lon="5.6198">
        <ele>1159</ele>
        <time>2017-12-12T03:27:46Z</time>
      </trkpt>
      <trkpt lat="44.72129" lon="5.61972">
        <ele>1157</ele>
        <time>2017-12-12T03:29:46Z</time>
      </trkpt>
      <trkpt lat="44.7213" lon="5.61956">
        <ele>1154</ele>
        <time>2017-12-12T03:31:46Z</time>
      </trkpt>
      <trkpt lat="44.72126" lon="5.61948">
        <ele>1152</ele>
        <time>2017-12-12T03:33:46Z</time>
      </trkpt>
      <trkpt lat="44.7212" lon="5.61946">
        <ele>1152</ele>
        <time>2017-12-12T03:35:46Z</time>
      </trkpt>
      <trkpt lat="44.721" lon="5.61926">
        <ele>1147</ele>
        <time>2017-12-12T03:37:46Z</time>
      </trkpt>
      <trkpt lat="44.72087" lon="5.61908">
        <ele>1143</ele>
        <time>2017-12-12T03:39:46Z</time>
      </trkpt>
      <trkpt lat="44.72073" lon="5.61887">
        <ele>1144</ele>
        <time>2017-12-12T03:41:46Z</time>
      </trkpt>
      <trkpt lat="44.72063" lon="5.61859">
        <ele>1142</ele>
        <time>2017-12-12T03:43:46Z</time>
      </trkpt>
      <trkpt lat="44.72057" lon="5.61843">
        <ele>1141</ele>
        <time>2017-12-12T03:45:46Z</time>
      </trkpt>
      <trkpt lat="44.72036" lon="5.61812">
        <ele>1142</ele>
        <time>2017-12-12T03:47:46Z</time>
      </trkpt>
      <trkpt lat="44.72028" lon="5.61796">
        <ele>1141</ele>
        <time>2017-12-12T03:49:46Z</time>
      </trkpt>
      <trkpt lat="44.72021" lon="5.61773">
        <ele>1137</ele>
        <time>2017-12-12T03:51:46Z</time>
      </trkpt>
      <trkpt lat="44.72015" lon="5.6175">
        <ele>1132</ele>
        <time>2017-12-12T03:53:46Z</time>
      </trkpt>
      <trkpt lat="44.72007" lon="5.61733">
        <ele>1130</ele>
        <time>2017-12-12T03:55:46Z</time>
      </trkpt>
      <trkpt lat="44.72" lon="5.61721">
        <ele>1127</ele>
        <time>2017-12-12T03:57:46Z</time>
      </trkpt>
      <trkpt lat="44.71998" lon="5.61704">
        <ele>1126</ele>
        <time>2017-12-12T03:59:46Z</time>
      </trkpt>
      <trkpt lat="44.72" lon="5.61686">
        <ele>1124</ele>
        <time>2017-12-12T04:01:46Z</time>
      </trkpt>
      <trkpt lat="44.72001" lon="5.61674">
        <ele>1123</ele>
        <time>2017-12-12T04:03:46Z</time>
      </trkpt>
      <trkpt lat="44.71995" lon="5.61614">
        <ele>1123</ele>
        <time>2017-12-12T04:05:46Z</time>
      </trkpt>
      <trkpt lat="44.71996" lon="5.61603">
        <ele>1122</ele>
        <time>2017-12-12T04:07:46Z</time>
      </trkpt>
      <trkpt lat="44.71998" lon="5.61589">
        <ele>1122</ele>
        <time>2017-12-12T04:09:46Z</time>
      </trkpt>
      <trkpt lat="44.72004" lon="5.61559">
        <ele>1121</ele>
        <time>2017-12-12T04:11:46Z</time>
      </trkpt>
      <trkpt lat="44.72006" lon="5.61545">
        <ele>1120</ele>
        <time>2017-12-12T04:13:46Z</time>
      </trkpt>
      <trkpt lat="44.72009" lon="5.61522">
        <ele>1119</ele>
        <time>2017-12-12T04:15:46Z</time>
      </trkpt>
      <trkpt lat="44.72013" lon="5.61508">
        <ele>1119</ele>
        <time>2017-12-12T04:17:46Z</time>
      </trkpt>
      <trkpt lat="44.7202" lon="5.61486">
        <ele>1120</ele>
        <time>2017-12-12T04:19:46Z</time>
      </trkpt>
      <trkpt lat="44.72024" lon="5.61474">
        <ele>1121</ele>
        <time>2017-12-12T04:21:46Z</time>
      </trkpt>
      <trkpt lat="44.7202" lon="5.61486">
        <ele>1120</ele>
        <time>2017-12-12T04:23:46Z</time>
      </trkpt>
      <trkpt lat="44.72012" lon="5.61508">
        <ele>1119</ele>
        <time>2017-12-12T04:25:46Z</time>
      </trkpt>
      <trkpt lat="44.72009" lon="5.61522">
        <ele>1119</ele>
        <time>2017-12-12T04:27:46Z</time>
      </trkpt>
      <trkpt lat="44.72006" lon="5.61545">
        <ele>1120</ele>
        <time>2017-12-12T04:29:46Z</time>
      </trkpt>
      <trkpt lat="44.72004" lon="5.61559">
        <ele>1121</ele>
        <time>2017-12-12T04:31:46Z</time>
      </trkpt>
      <trkpt lat="44.71998" lon="5.61589">
        <ele>1122</ele>
        <time>2017-12-12T04:33:46Z</time>
      </trkpt>
      <trkpt lat="44.71995" lon="5.61602">
        <ele>1123</ele>
        <time>2017-12-12T04:35:46Z</time>
      </trkpt>
      <trkpt lat="44.71995" lon="5.61614">
        <ele>1123</ele>
        <time>2017-12-12T04:37:46Z</time>
      </trkpt>
      <trkpt lat="44.72" lon="5.61673">
        <ele>1123</ele>
        <time>2017-12-12T04:39:46Z</time>
      </trkpt>
      <trkpt lat="44.71999" lon="5.61686">
        <ele>1124</ele>
        <time>2017-12-12T04:41:46Z</time>
      </trkpt>
      <trkpt lat="44.71998" lon="5.61703">
        <ele>1126</ele>
        <time>2017-12-12T04:43:46Z</time>
      </trkpt>
      <trkpt lat="44.72" lon="5.6172">
        <ele>1127</ele>
        <time>2017-12-12T04:45:46Z</time>
      </trkpt>
      <trkpt lat="44.72007" lon="5.61732">
        <ele>1130</ele>
        <time>2017-12-12T04:47:46Z</time>
      </trkpt>
      <trkpt lat="44.72015" lon="5.6175">
        <ele>1132</ele>
        <time>2017-12-12T04:49:46Z</time>
      </trkpt>
      <trkpt lat="44.7202" lon="5.61773">
        <ele>1137</ele>
        <time>2017-12-12T04:51:46Z</time>
      </trkpt>
      <trkpt lat="44.72028" lon="5.61797">
        <ele>1141</ele>
        <time>2017-12-12T04:53:46Z</time>
      </trkpt>
      <trkpt lat="44.72035" lon="5.61812">
        <ele>1142</ele>
        <time>2017-12-12T04:55:46Z</time>
      </trkpt>
      <trkpt lat="44.72057" lon="5.61842">
        <ele>1141</ele>
        <time>2017-12-12T04:57:46Z</time>
      </trkpt>
      <trkpt lat="44.72063" lon="5.61858">
        <ele>1142</ele>
        <time>2017-12-12T04:59:46Z</time>
      </trkpt>
      <trkpt lat="44.72073" lon="5.61886">
        <ele>1143</ele>
        <time>2017-12-12T05:01:46Z</time>
      </trkpt>
      <trkpt lat="44.72087" lon="5.61909">
        <ele>1143</ele>
        <time>2017-12-12T05:03:46Z</time>
      </trkpt>
      <trkpt lat="44.72101" lon="5.61926">
        <ele>1147</ele>
        <time>2017-12-12T05:05:46Z</time>
      </trkpt>
      <trkpt lat="44.7212" lon="5.61946">
        <ele>1152</ele>
        <time>2017-12-12T05:07:46Z</time>
      </trkpt>
      <trkpt lat="44.72126" lon="5.61947">
        <ele>1152</ele>
        <time>2017-12-12T05:09:46Z</time>
      </trkpt>
      <trkpt lat="44.72129" lon="5.61957">
        <ele>1154</ele>
        <time>2017-12-12T05:11:46Z</time>
      </trkpt>
      <trkpt lat="44.72129" lon="5.61972">
        <ele>1157</ele>
        <time>2017-12-12T05:13:46Z</time>
      </trkpt>
      <trkpt lat="44.72132" lon="5.61981">
        <ele>1159</ele>
        <time>2017-12-12T05:15:46Z</time>
      </trkpt>
      <trkpt lat="44.72139" lon="5.61986">
        <ele>1160</ele>
        <time>2017-12-12T05:17:46Z</time>
      </trkpt>
      <trkpt lat="44.72171" lon="5.62005">
        <ele>1164</ele>
        <time>2017-12-12T05:19:46Z</time>
      </trkpt>
      <trkpt lat="44.72196" lon="5.6202">
        <ele>1167</ele>
        <time>2017-12-12T05:21:46Z</time>
      </trkpt>
      <trkpt lat="44.72208" lon="5.62025">
        <ele>1168</ele>
        <time>2017-12-12T05:23:46Z</time>
      </trkpt>
      <trkpt lat="44.72221" lon="5.62028">
        <ele>1168</ele>
        <time>2017-12-12T05:25:46Z</time>
      </trkpt>
      <trkpt lat="44.72238" lon="5.62029">
        <ele>1167</ele>
        <time>2017-12-12T05:27:46Z</time>
      </trkpt>
      <trkpt lat="44.72259" lon="5.62028">
        <ele>1168</ele>
        <time>2017-12-12T05:29:46Z</time>
      </trkpt>
      <trkpt lat="44.72281" lon="5.62028">
        <ele>1172</ele>
        <time>2017-12-12T05:31:46Z</time>
      </trkpt>
      <trkpt lat="44.72259" lon="5.62054">
        <ele>1170</ele>
        <time>2017-12-12T05:33:46Z</time>
      </trkpt>
      <trkpt lat="44.72239" lon="5.62078">
        <ele>1173</ele>
        <time>2017-12-12T05:35:46Z</time>
      </trkpt>
      <trkpt lat="44.72237" lon="5.62107">
        <ele>1178</ele>
        <time>2017-12-12T05:37:46Z</time>
      </trkpt>
      <trkpt lat="44.72244" lon="5.6213">
        <ele>1180</ele>
        <time>2017-12-12T05:39:46Z</time>
      </trkpt>
      <trkpt lat="44.72247" lon="5.62149">
        <ele>1182</ele>
        <time>2017-12-12T05:41:46Z</time>
      </trkpt>
      <trkpt lat="44.72248" lon="5.62167">
        <ele>1184</ele>
        <time>2017-12-12T05:43:46Z</time>
      </trkpt>
      <trkpt lat="44.72244" lon="5.62184">
        <ele>1191</ele>
        <time>2017-12-12T05:45:46Z</time>
      </trkpt>
      <trkpt lat="44.72232" lon="5.62181">
        <ele>1196</ele>
        <time>2017-12-12T05:47:46Z</time>
      </trkpt>
      <trkpt lat="44.72204" lon="5.62147">
        <ele>1200</ele>
        <time>2017-12-12T05:49:46Z</time>
      </trkpt>
      <trkpt lat="44.72182" lon="5.62119">
        <ele>1199</ele>
        <time>2017-12-12T05:51:46Z</time>
      </trkpt>
      <trkpt lat="44.72166" lon="5.62108">
        <ele>1199</ele>
        <time>2017-12-12T05:53:46Z</time>
      </trkpt>
      <trkpt lat="44.72145" lon="5.6209">
        <ele>1195</ele>
        <time>2017-12-12T05:55:46Z</time>
      </trkpt>
      <trkpt lat="44.72136" lon="5.62088">
        <ele>1195</ele>
        <time>2017-12-12T05:57:46Z</time>
      </trkpt>
      <trkpt lat="44.72099" lon="5.62087">
        <ele>1200</ele>
        <time>2017-12-12T05:59:46Z</time>
      </trkpt>
      <trkpt lat="44.72065" lon="5.62105">
        <ele>1211</ele>
        <time>2017-12-12T06:01:46Z</time>
      </trkpt>
      <trkpt lat="44.72027" lon="5.62122">
        <ele>1217</ele>
        <time>2017-12-12T06:03:46Z</time>
      </trkpt>
      <trkpt lat="44.71997" lon="5.62134">
        <ele>1220</ele>
        <time>2017-12-12T06:05:46Z</time>
      </trkpt>
      <trkpt lat="44.71968" lon="5.62146">
        <ele>1230</ele>
        <time>2017-12-12T06:07:46Z</time>
      </trkpt>
      <trkpt lat="44.71951" lon="5.6214">
        <ele>1232</ele>
        <time>2017-12-12T06:09:46Z</time>
      </trkpt>
      <trkpt lat="44.7193" lon="5.62133">
        <ele>1234</ele>
        <time>2017-12-12T06:11:46Z</time>
      </trkpt>
      <trkpt lat="44.71902" lon="5.62122">
        <ele>1242</ele>
        <time>2017-12-12T06:13:46Z</time>
      </trkpt>
      <trkpt lat="44.7189" lon="5.62096">
        <ele>1244</ele>
        <time>2017-12-12T06:15:46Z</time>
      </trkpt>
      <trkpt lat="44.71889" lon="5.62065">
        <ele>1242</ele>
        <time>2017-12-12T06:17:46Z</time>
      </trkpt>
      <trkpt lat="44.71888" lon="5.62037">
        <ele>1243</ele>
        <time>2017-12-12T06:19:46Z</time>
      </trkpt>
      <trkpt lat="44.71883" lon="5.62011">
        <ele>1245</ele>
        <time>2017-12-12T06:21:46Z</time>
      </trkpt>
      <trkpt lat="44.71855" lon="5.61982">
        <ele>1253</ele>
        <time>2017-12-12T06:23:46Z</time>
      </trkpt>
      <trkpt lat="44.71828" lon="5.61945">
        <ele>1256</ele>
        <time>2017-12-12T06:25:46Z</time>
      </trkpt>
      <trkpt lat="44.71805" lon="5.61911">
        <ele>1262</ele>
        <time>2017-12-12T06:27:46Z</time>
      </trkpt>
      <trkpt lat="44.71783" lon="5.61875">
        <ele>1265</ele>
        <time>2017-12-12T06:29:46Z</time>
      </trkpt>
      <trkpt lat="44.71775" lon="5.61866">
        <ele>1267</ele>
        <time>2017-12-12T06:31:46Z</time>
      </trkpt>
      <trkpt lat="44.71753" lon="5.61844">
        <ele>1273</ele>
        <time>2017-12-12T06:33:46Z</time>
      </trkpt>
      <trkpt lat="44.71726" lon="5.6183">
        <ele>1276</ele>
        <time>2017-12-12T06:35:46Z</time>
      </trkpt>
      <trkpt lat="44.71683" lon="5.61834">
        <ele>1289</ele>
        <time>2017-12-12T06:37:46Z</time>
      </trkpt>
      <trkpt lat="44.71649" lon="5.61846">
        <ele>1299</ele>
        <time>2017-12-12T06:39:46Z</time>
      </trkpt>
      <trkpt lat="44.7162" lon="5.6186">
        <ele>1306</ele>
        <time>2017-12-12T06:41:46Z</time>
      </trkpt>
      <trkpt lat="44.71608" lon="5.6186">
        <ele>1306</ele>
        <time>2017-12-12T06:43:46Z</time>
      </trkpt>
      <trkpt lat="44.7159" lon="5.61854">
        <ele>1305</ele>
        <time>2017-12-12T06:45:46Z</time>
      </trkpt>
      <trkpt lat="44.71565" lon="5.61849">
        <ele>1303</ele>
        <time>2017-12-12T06:47:46Z</time>
      </trkpt>
      <trkpt lat="44.7155" lon="5.6185">
        <ele>1303</ele>
        <time>2017-12-12T06:49:46Z</time>
      </trkpt>
      <trkpt lat="44.71515" lon="5.61868">
        <ele>1311</ele>
        <time>2017-12-12T06:51:46Z</time>
      </trkpt>
      <trkpt lat="44.71495" lon="5.61872">
        <ele>1312</ele>
        <time>2017-12-12T06:53:46Z</time>
      </trkpt>
      <trkpt lat="44.71482" lon="5.61869">
        <ele>1310</ele>
        <time>2017-12-12T06:55:46Z</time>
      </trkpt>
      <trkpt lat="44.71464" lon="5.61859">
        <ele>1305</ele>
        <time>2017-12-12T06:57:46Z</time>
      </trkpt>
      <trkpt lat="44.71449" lon="5.6186">
        <ele>1305</ele>
        <time>2017-12-12T06:59:46Z</time>
      </trkpt>
      <trkpt lat="44.71407" lon="5.61881">
        <ele>1305</ele>
        <time>2017-12-12T07:01:46Z</time>
      </trkpt>
      <trkpt lat="44.71398" lon="5.61888">
        <ele>1305</ele>
        <time>2017-12-12T07:03:46Z</time>
      </trkpt>
      <trkpt lat="44.71387" lon="5.61906">
        <ele>1306</ele>
        <time>2017-12-12T07:05:46Z</time>
      </trkpt>
      <trkpt lat="44.71388" lon="5.61912">
        <ele>1307</ele>
        <time>2017-12-12T07:07:46Z</time>
      </trkpt>
      <trkpt lat="44.71383" lon="5.6192">
        <ele>1308</ele>
        <time>2017-12-12T07:09:46Z</time>
      </trkpt>
      <trkpt lat="44.71376" lon="5.6193">
        <ele>1307</ele>
        <time>2017-12-12T07:11:46Z</time>
      </trkpt>
      <trkpt lat="44.71364" lon="5.61962">
        <ele>1308</ele>
        <time>2017-12-12T07:13:46Z</time>
      </trkpt>
      <trkpt lat="44.71364" lon="5.61977">
        <ele>1310</ele>
        <time>2017-12-12T07:15:46Z</time>
      </trkpt>
      <trkpt lat="44.71368" lon="5.61994">
        <ele>1313</ele>
        <time>2017-12-12T07:17:46Z</time>
      </trkpt>
      <trkpt lat="44.7138" lon="5.62039">
        <ele>1318</ele>
        <time>2017-12-12T07:19:46Z</time>
      </trkpt>
      <trkpt lat="44.71387" lon="5.62066">
        <ele>1321</ele>
        <time>2017-12-12T07:21:46Z</time>
      </trkpt>
      <trkpt lat="44.71394" lon="5.62094">
        <ele>1325</ele>
        <time>2017-12-12T07:23:46Z</time>
      </trkpt>
      <trkpt lat="44.71402" lon="5.62143">
        <ele>1327</ele>
        <time>2017-12-12T07:25:46Z</time>
      </trkpt>
      <trkpt lat="44.71406" lon="5.62205">
        <ele>1328</ele>
        <time>2017-12-12T07:27:46Z</time>
      </trkpt>
      <trkpt lat="44.71407" lon="5.62256">
        <ele>1327</ele>
        <time>2017-12-12T07:29:46Z</time>
      </trkpt>
      <trkpt lat="44.71412" lon="5.62305">
        <ele>1326</ele>
        <time>2017-12-12T07:31:46Z</time>
      </trkpt>
      <trkpt lat="44.71415" lon="5.62364">
        <ele>1324</ele>
        <time>2017-12-12T07:33:46Z</time>
      </trkpt>
      <trkpt lat="44.71417" lon="5.62405">
        <ele>1324</ele>
        <time>2017-12-12T07:35:46Z</time>
      </trkpt>
      <trkpt lat="44.71416" lon="5.62443">
        <ele>1322</ele>
        <time>2017-12-12T07:37:46Z</time>
      </trkpt>
      <trkpt lat="44.71417" lon="5.62487">
        <ele>1322</ele>
        <time>2017-12-12T07:39:46Z</time>
      </trkpt>
      <trkpt lat="44.7142" lon="5.62526">
        <ele>1323</ele>
        <time>2017-12-12T07:41:46Z</time>
      </trkpt>
      <trkpt lat="44.71425" lon="5.62567">
        <ele>1327</ele>
        <time>2017-12-12T07:43:46Z</time>
      </trkpt>
      <trkpt lat="44.71431" lon="5.62618">
        <ele>1332</ele>
        <time>2017-12-12T07:45:46Z</time>
      </trkpt>
      <trkpt lat="44.71434" lon="5.62652">
        <ele>1334</ele>
        <time>2017-12-12T07:47:46Z</time>
      </trkpt>
      <trkpt lat="44.71433" lon="5.62677">
        <ele>1333</ele>
        <time>2017-12-12T07:49:46Z</time>
      </trkpt>
      <trkpt lat="44.71431" lon="5.62725">
        <ele>1330</ele>
        <time>2017-12-12T07:51:46Z</time>
      </trkpt>
      <trkpt lat="44.71432" lon="5.62738">
        <ele>1330</ele>
        <time>2017-12-12T07:53:46Z</time>
      </trkpt>
      <trkpt lat="44.71434" lon="5.62758">
        <ele>1330</ele>
        <time>2017-12-12T07:55:46Z</time>
      </trkpt>
      <trkpt lat="44.71443" lon="5.62797">
        <ele>1331</ele>
        <time>2017-12-12T07:57:46Z</time>
      </trkpt>
      <trkpt lat="44.71452" lon="5.62838">
        <ele>1332</ele>
        <time>2017-12-12T07:59:46Z</time>
      </trkpt>
      <trkpt lat="44.71462" lon="5.62885">
        <ele>1329</ele>
        <time>2017-12-12T08:01:46Z</time>
      </trkpt>
      <trkpt lat="44.71472" lon="5.62932">
        <ele>1326</ele>
        <time>2017-12-12T08:03:46Z</time>
      </trkpt>
      <trkpt lat="44.71481" lon="5.62991">
        <ele>1323</ele>
        <time>2017-12-12T08:05:46Z</time>
      </trkpt>
      <trkpt lat="44.71488" lon="5.63031">
        <ele>1320</ele>
        <time>2017-12-12T08:07:46Z</time>
      </trkpt>
      <trkpt lat="44.71493" lon="5.63064">
        <ele>1317</ele>
        <time>2017-12-12T08:09:46Z</time>
      </trkpt>
      <trkpt lat="44.71494" lon="5.63084">
        <ele>1314</ele>
        <time>2017-12-12T08:11:46Z</time>
      </trkpt>
      <trkpt lat="44.71502" lon="5.63101">
        <ele>1316</ele>
        <time>2017-12-12T08:13:46Z</time>
      </trkpt>
      <trkpt lat="44.71506" lon="5.63116">
        <ele>1317</ele>
        <time>2017-12-12T08:15:46Z</time>
      </trkpt>
      <trkpt lat="44.71505" lon="5.63137">
        <ele>1316</ele>
        <time>2017-12-12T08:17:46Z</time>
      </trkpt>
      <trkpt lat="44.71509" lon="5.63154">
        <ele>1316</ele>
        <time>2017-12-12T08:19:46Z</time>
      </trkpt>
      <trkpt lat="44.71517" lon="5.63176">
        <ele>1319</ele>
        <time>2017-12-12T08:21:46Z</time>
      </trkpt>
      <trkpt lat="44.7152" lon="5.6319">
        <ele>1322</ele>
        <time>2017-12-12T08:23:46Z</time>
      </trkpt>
      <trkpt lat="44.71515" lon="5.63208">
        <ele>1322</ele>
        <time>2017-12-12T08:25:46Z</time>
      </trkpt>
      <trkpt lat="44.715" lon="5.63215">
        <ele>1318</ele>
        <time>2017-12-12T08:27:46Z</time>
      </trkpt>
      <trkpt lat="44.71491" lon="5.63208">
        <ele>1317</ele>
        <time>2017-12-12T08:29:46Z</time>
      </trkpt>
      <trkpt lat="44.71473" lon="5.63196">
        <ele>1314</ele>
        <time>2017-12-12T08:31:46Z</time>
      </trkpt>
      <trkpt lat="44.71456" lon="5.63181">
        <ele>1309</ele>
        <time>2017-12-12T08:33:46Z</time>
      </trkpt>
      <trkpt lat="44.71428" lon="5.63175">
        <ele>1304</ele>
        <time>2017-12-12T08:35:46Z</time>
      </trkpt>
      <trkpt lat="44.71408" lon="5.63165">
        <ele>1300</ele>
        <time>2017-12-12T08:37:46Z</time>
      </trkpt>
      <trkpt lat="44.71387" lon="5.63154">
        <ele>1300</ele>
        <time>2017-12-12T08:39:46Z</time>
      </trkpt>
      <trkpt lat="44.71371" lon="5.63146">
        <ele>1299</ele>
        <time>2017-12-12T08:41:46Z</time>
      </trkpt>
      <trkpt lat="44.71349" lon="5.63142">
        <ele>1299</ele>
        <time>2017-12-12T08:43:46Z</time>
      </trkpt>
      <trkpt lat="44.71325" lon="5.63139">
        <ele>1299</ele>
        <time>2017-12-12T08:45:46Z</time>
      </trkpt>
      <trkpt lat="44.71303" lon="5.63135">
        <ele>1298</ele>
        <time>2017-12-12T08:47:46Z</time>
      </trkpt>
      <trkpt lat="44.71279" lon="5.63144">
        <ele>1301</ele>
        <time>2017-12-12T08:49:46Z</time>
      </trkpt>
      <trkpt lat="44.71262" lon="5.63144">
        <ele>1301</ele>
        <time>2017-12-12T08:51:46Z</time>
      </trkpt>
      <trkpt lat="44.71247" lon="5.63147">
        <ele>1302</ele>
        <time>2017-12-12T08:53:46Z</time>
      </trkpt>
      <trkpt lat="44.71234" lon="5.63146">
        <ele>1303</ele>
        <time>2017-12-12T08:55:46Z</time>
      </trkpt>
      <trkpt lat="44.71221" lon="5.63144">
        <ele>1302</ele>
        <time>2017-12-12T08:57:46Z</time>
      </trkpt>
      <trkpt lat="44.71208" lon="5.6314">
        <ele>1302</ele>
        <time>2017-12-12T08:59:46Z</time>
      </trkpt>
      <trkpt lat="44.71192" lon="5.63138">
        <ele>1302</ele>
        <time>2017-12-12T09:01:46Z</time>
      </trkpt>
      <trkpt lat="44.71183" lon="5.63135">
        <ele>1301</ele>
        <time>2017-12-12T09:03:46Z</time>
      </trkpt>
      <trkpt lat="44.71165" lon="5.63127">
        <ele>1299</ele>
        <time>2017-12-12T09:05:46Z</time>
      </trkpt>
      <trkpt lat="44.7114" lon="5.63116">
        <ele>1299</ele>
        <time>2017-12-12T09:07:46Z</time>
      </trkpt>
      <trkpt lat="44.7112" lon="5.63106">
        <ele>1298</ele>
        <time>2017-12-12T09:09:46Z</time>
      </trkpt>
      <trkpt lat="44.71109" lon="5.63097">
        <ele>1297</ele>
        <time>2017-12-12T09:11:46Z</time>
      </trkpt>
      <trkpt lat="44.711" lon="5.6309">
        <ele>1296</ele>
        <time>2017-12-12T09:13:46Z</time>
      </trkpt>
      <trkpt lat="44.71088" lon="5.63084">
        <ele>1296</ele>
        <time>2017-12-12T09:15:46Z</time>
      </trkpt>
      <trkpt lat="44.71071" lon="5.6308">
        <ele>1296</ele>
        <time>2017-12-12T09:17:46Z</time>
      </trkpt>
      <trkpt lat="44.71056" lon="5.63073">
        <ele>1296</ele>
        <time>2017-12-12T09:19:46Z</time>
      </trkpt>
      <trkpt lat="44.71038" lon="5.63064">
        <ele>1296</ele>
        <time>2017-12-12T09:21:46Z</time>
      </trkpt>
      <trkpt lat="44.71012" lon="5.63058">
        <ele>1299</ele>
        <time>2017-12-12T09:23:46Z</time>
      </trkpt>
      <trkpt lat="44.70985" lon="5.63056">
        <ele>1307</ele>
        <time>2017-12-12T09:25:46Z</time>
      </trkpt>
      <trkpt lat="44.70975" lon="5.63052">
        <ele>1311</ele>
        <time>2017-12-12T09:27:46Z</time>
      </trkpt>
      <trkpt lat="44.70968" lon="5.6303">
        <ele>1312</ele>
        <time>2017-12-12T09:29:46Z</time>
      </trkpt>
      <trkpt lat="44.70958" lon="5.62993">
        <ele>1313</ele>
        <time>2017-12-12T09:31:46Z</time>
      </trkpt>
      <trkpt lat="44.70946" lon="5.62955">
        <ele>1315</ele>
        <time>2017-12-12T09:33:46Z</time>
      </trkpt>
      <trkpt lat="44.7093" lon="5.6291">
        <ele>1320</ele>
        <time>2017-12-12T09:35:46Z</time>
      </trkpt>
      <trkpt lat="44.70917" lon="5.62866">
        <ele>1326</ele>
        <time>2017-12-12T09:37:46Z</time>
      </trkpt>
      <trkpt lat="44.70908" lon="5.6283">
        <ele>1330</ele>
        <time>2017-12-12T09:39:46Z</time>
      </trkpt>
      <trkpt lat="44.70898" lon="5.62778">
        <ele>1334</ele>
        <time>2017-12-12T09:41:46Z</time>
      </trkpt>
      <trkpt lat="44.70894" lon="5.62741">
        <ele>1334</ele>
        <time>2017-12-12T09:43:46Z</time>
      </trkpt>
      <trkpt lat="44.70893" lon="5.62686">
        <ele>1328</ele>
        <time>2017-12-12T09:45:46Z</time>
      </trkpt>
      <trkpt lat="44.70892" lon="5.62649">
        <ele>1324</ele>
        <time>2017-12-12T09:47:46Z</time>
      </trkpt>
      <trkpt lat="44.7089" lon="5.6262">
        <ele>1320</ele>
        <time>2017-12-12T09:49:46Z</time>
      </trkpt>
      <trkpt lat="44.70874" lon="5.62578">
        <ele>1322</ele>
        <time>2017-12-12T09:51:46Z</time>
      </trkpt>
      <trkpt lat="44.70858" lon="5.62553">
        <ele>1320</ele>
        <time>2017-12-12T09:53:46Z</time>
      </trkpt>
      <trkpt lat="44.70849" lon="5.62539">
        <ele>1318</ele>
        <time>2017-12-12T09:55:46Z</time>
      </trkpt>
      <trkpt lat="44.7082" lon="5.62536">
        <ele>1322</ele>
        <time>2017-12-12T09:57:46Z</time>
      </trkpt>
      <trkpt lat="44.70798" lon="5.62531">
        <ele>1318</ele>
        <time>2017-12-12T09:59:46Z</time>
      </trkpt>
      <trkpt lat="44.70774" lon="5.62542">
        <ele>1321</ele>
        <time>2017-12-12T10:01:46Z</time>
      </trkpt>
      <trkpt lat="44.70754" lon="5.62548">
        <ele>1322</ele>
        <time>2017-12-12T10:03:46Z</time>
      </trkpt>
      <trkpt lat="44.70735" lon="5.62556">
        <ele>1321</ele>
        <time>2017-12-12T10:05:46Z</time>
      </trkpt>
      <trkpt lat="44.70716" lon="5.62571">
        <ele>1321</ele>
        <time>2017-12-12T10:07:46Z</time>
      </trkpt>
      <trkpt lat="44.70699" lon="5.62586">
        <ele>1322</ele>
        <time>2017-12-12T10:09:46Z</time>
      </trkpt>
      <trkpt lat="44.70667" lon="5.62609">
        <ele>1321</ele>
        <time>2017-12-12T10:11:46Z</time>
      </trkpt>
      <trkpt lat="44.70652" lon="5.62618">
        <ele>1322</ele>
        <time>2017-12-12T10:13:46Z</time>
      </trkpt>
      <trkpt lat="44.70629" lon="5.62632">
        <ele>1323</ele>
        <time>2017-12-12T10:15:46Z</time>
      </trkpt>
      <trkpt lat="44.70606" lon="5.62644">
        <ele>1323</ele>
        <time>2017-12-12T10:17:46Z</time>
      </trkpt>
      <trkpt lat="44.70584" lon="5.62655">
        <ele>1323</ele>
        <time>2017-12-12T10:19:46Z</time>
      </trkpt>
      <trkpt lat="44.70555" lon="5.62664">
        <ele>1322</ele>
        <time>2017-12-12T10:21:46Z</time>
      </trkpt>
      <trkpt lat="44.70535" lon="5.62668">
        <ele>1320</ele>
        <time>2017-12-12T10:23:46Z</time>
      </trkpt>
      <trkpt lat="44.70513" lon="5.62668">
        <ele>1316</ele>
        <time>2017-12-12T10:25:46Z</time>
      </trkpt>
      <trkpt lat="44.70489" lon="5.62666">
        <ele>1311</ele>
        <time>2017-12-12T10:27:46Z</time>
      </trkpt>
      <trkpt lat="44.70478" lon="5.62667">
        <ele>1308</ele>
        <time>2017-12-12T10:29:46Z</time>
      </trkpt>
      <trkpt lat="44.70458" lon="5.62673">
        <ele>1305</ele>
        <time>2017-12-12T10:31:46Z</time>
      </trkpt>
      <trkpt lat="44.70451" lon="5.62664">
        <ele>1300</ele>
        <time>2017-12-12T10:33:46Z</time>
      </trkpt>
      <trkpt lat="44.70445" lon="5.62665">
        <ele>1299</ele>
        <time>2017-12-12T10:35:46Z</time>
      </trkpt>
      <trkpt lat="44.70421" lon="5.62693">
        <ele>1299</ele>
        <time>2017-12-12T10:37:46Z</time>
      </trkpt>
      <trkpt lat="44.7039" lon="5.62742">
        <ele>1296</ele>
        <time>2017-12-12T10:39:46Z</time>
      </trkpt>
      <trkpt lat="44.70364" lon="5.62776">
        <ele>1294</ele>
        <time>2017-12-12T10:41:46Z</time>
      </trkpt>
      <trkpt lat="44.70337" lon="5.62792">
        <ele>1287</ele>
        <time>2017-12-12T10:43:46Z</time>
      </trkpt>
      <trkpt lat="44.70308" lon="5.6281">
        <ele>1283</ele>
        <time>2017-12-12T10:45:46Z</time>
      </trkpt>
      <trkpt lat="44.7027" lon="5.62828">
        <ele>1277</ele>
        <time>2017-12-12T10:47:46Z</time>
      </trkpt>
      <trkpt lat="44.70251" lon="5.6283">
        <ele>1272</ele>
        <time>2017-12-12T10:49:46Z</time>
      </trkpt>
      <trkpt lat="44.70232" lon="5.62831">
        <ele>1268</ele>
        <time>2017-12-12T10:51:46Z</time>
      </trkpt>
      <trkpt lat="44.70192" lon="5.62833">
        <ele>1260</ele>
        <time>2017-12-12T10:53:46Z</time>
      </trkpt>
      <trkpt lat="44.70154" lon="5.62836">
        <ele>1254</ele>
        <time>2017-12-12T10:55:46Z</time>
      </trkpt>
      <trkpt lat="44.70121" lon="5.62836">
        <ele>1248</ele>
        <time>2017-12-12T10:57:46Z</time>
      </trkpt>
      <trkpt lat="44.70085" lon="5.62841">
        <ele>1243</ele>
        <time>2017-12-12T10:59:46Z</time>
      </trkpt>
      <trkpt lat="44.70047" lon="5.62841">
        <ele>1237</ele>
        <time>2017-12-12T11:01:46Z</time>
      </trkpt>
      <trkpt lat="44.7003" lon="5.62839">
        <ele>1234</ele>
        <time>2017-12-12T11:03:46Z</time>
      </trkpt>
      <trkpt lat="44.70006" lon="5.6283">
        <ele>1229</ele>
        <time>2017-12-12T11:05:46Z</time>
      </trkpt>
      <trkpt lat="44.69991" lon="5.62825">
        <ele>1225</ele>
        <time>2017-12-12T11:07:46Z</time>
      </trkpt>
      <trkpt lat="44.6998" lon="5.62822">
        <ele>1222</ele>
        <time>2017-12-12T11:09:46Z</time>
      </trkpt>
      <trkpt lat="44.69981" lon="5.62836">
        <ele>1224</ele>
        <time>2017-12-12T11:11:46Z</time>
      </trkpt>
      <trkpt lat="44.69983" lon="5.62861">
        <ele>1227</ele>
        <time>2017-12-12T11:13:46Z</time>
      </trkpt>
      <trkpt lat="44.69983" lon="5.62885">
        <ele>1229</ele>
        <time>2017-12-12T11:15:46Z</time>
      </trkpt>
      <trkpt lat="44.6998" lon="5.62896">
        <ele>1229</ele>
        <time>2017-12-12T11:17:46Z</time>
      </trkpt>
      <trkpt lat="44.69974" lon="5.62905">
        <ele>1228</ele>
        <time>2017-12-12T11:19:46Z</time>
      </trkpt>
      <trkpt lat="44.69962" lon="5.62926">
        <ele>1224</ele>
        <time>2017-12-12T11:21:46Z</time>
      </trkpt>
      <trkpt lat="44.69959" lon="5.62938">
        <ele>1223</ele>
        <time>2017-12-12T11:23:46Z</time>
      </trkpt>
      <trkpt lat="44.69955" lon="5.62965">
        <ele>1222</ele>
        <time>2017-12-12T11:25:46Z</time>
      </trkpt>
      <trkpt lat="44.69952" lon="5.62992">
        <ele>1222</ele>
        <time>2017-12-12T11:27:46Z</time>
      </trkpt>
      <trkpt lat="44.69952" lon="5.63007">
        <ele>1222</ele>
        <time>2017-12-12T11:29:46Z</time>
      </trkpt>
      <trkpt lat="44.69951" lon="5.63013">
        <ele>1222</ele>
        <time>2017-12-12T11:31:46Z</time>
      </trkpt>
      <trkpt lat="44.69944" lon="5.63029">
        <ele>1219</ele>
        <time>2017-12-12T11:33:46Z</time>
      </trkpt>
      <trkpt lat="44.69938" lon="5.63046">
        <ele>1217</ele>
        <time>2017-12-12T11:35:46Z</time>
      </trkpt>
      <trkpt lat="44.69929" lon="5.6307">
        <ele>1213</ele>
        <time>2017-12-12T11:37:46Z</time>
      </trkpt>
      <trkpt lat="44.69921" lon="5.63095">
        <ele>1210</ele>
        <time>2017-12-12T11:39:46Z</time>
      </trkpt>
      <trkpt lat="44.69915" lon="5.63104">
        <ele>1208</ele>
        <time>2017-12-12T11:41:46Z</time>
      </trkpt>
      <trkpt lat="44.69905" lon="5.63132">
        <ele>1206</ele>
        <time>2017-12-12T11:43:46Z</time>
      </trkpt>
      <trkpt lat="44.69893" lon="5.63172">
        <ele>1204</ele>
        <time>2017-12-12T11:45:46Z</time>
      </trkpt>
      <trkpt lat="44.69881" lon="5.63213">
        <ele>1200</ele>
        <time>2017-12-12T11:47:46Z</time>
      </trkpt>
      <trkpt lat="44.69868" lon="5.63248">
        <ele>1196</ele>
        <time>2017-12-12T11:49:46Z</time>
      </trkpt>
      <trkpt lat="44.69855" lon="5.63277">
        <ele>1192</ele>
        <time>2017-12-12T11:51:46Z</time>
      </trkpt>
      <trkpt lat="44.69838" lon="5.63293">
        <ele>1186</ele>
        <time>2017-12-12T11:53:46Z</time>
      </trkpt>
      <trkpt lat="44.69816" lon="5.63308">
        <ele>1179</ele>
        <time>2017-12-12T11:55:46Z</time>
      </trkpt>
      <trkpt lat="44.69791" lon="5.63323">
        <ele>1170</ele>
        <time>2017-12-12T11:57:46Z</time>
      </trkpt>
      <trkpt lat="44.69773" lon="5.63328">
        <ele>1163</ele>
        <time>2017-12-12T11:59:46Z</time>
      </trkpt>
      <trkpt lat="44.69765" lon="5.63333">
        <ele>1160</ele>
        <time>2017-12-12T12:01:46Z</time>
      </trkpt>
      <trkpt lat="44.6976" lon="5.63345">
        <ele>1158</ele>
        <time>2017-12-12T12:03:46Z</time>
      </trkpt>
      <trkpt lat="44.69755" lon="5.63379">
        <ele>1155</ele>
        <time>2017-12-12T12:05:46Z</time>
      </trkpt>
      <trkpt lat="44.69756" lon="5.63405">
        <ele>1155</ele>
        <time>2017-12-12T12:07:46Z</time>
      </trkpt>
      <trkpt lat="44.6976" lon="5.63427">
        <ele>1156</ele>
        <time>2017-12-12T12:09:46Z</time>
      </trkpt>
      <trkpt lat="44.69763" lon="5.63443">
        <ele>1158</ele>
        <time>2017-12-12T12:11:46Z</time>
      </trkpt>
      <trkpt lat="44.6976" lon="5.63467">
        <ele>1157</ele>
        <time>2017-12-12T12:13:46Z</time>
      </trkpt>
      <trkpt lat="44.69757" lon="5.63489">
        <ele>1156</ele>
        <time>2017-12-12T12:15:46Z</time>
      </trkpt>
      <trkpt lat="44.69754" lon="5.63502">
        <ele>1156</ele>
        <time>2017-12-12T12:17:46Z</time>
      </trkpt>
      <trkpt lat="44.69743" lon="5.63523">
        <ele>1155</ele>
        <time>2017-12-12T12:19:46Z</time>
      </trkpt>
      <trkpt lat="44.69733" lon="5.6353">
        <ele>1152</ele>
        <time>2017-12-12T12:21:46Z</time>
      </trkpt>
      <trkpt lat="44.6971" lon="5.63536">
        <ele>1146</ele>
        <time>2017-12-12T12:23:46Z</time>
      </trkpt>
      <trkpt lat="44.69704" lon="5.63539">
        <ele>1145</ele>
        <time>2017-12-12T12:25:46Z</time>
      </trkpt>
      <trkpt lat="44.69696" lon="5.63556">
        <ele>1144</ele>
        <time>2017-12-12T12:27:46Z</time>
      </trkpt>
      <trkpt lat="44.69689" lon="5.63564">
        <ele>1143</ele>
        <time>2017-12-12T12:29:46Z</time>
      </trkpt>
      <trkpt lat="44.69679" lon="5.63566">
        <ele>1140</ele>
        <time>2017-12-12T12:31:46Z</time>
      </trkpt>
      <trkpt lat="44.69668" lon="5.63557">
        <ele>1136</ele>
        <time>2017-12-12T12:33:46Z</time>
      </trkpt>
      <trkpt lat="44.69659" lon="5.63549">
        <ele>1132</ele>
        <time>2017-12-12T12:35:46Z</time>
      </trkpt>
      <trkpt lat="44.69649" lon="5.63548">
        <ele>1130</ele>
        <time>2017-12-12T12:37:46Z</time>
      </trkpt>
      <trkpt lat="44.6964" lon="5.63553">
        <ele>1128</ele>
        <time>2017-12-12T12:39:46Z</time>
      </trkpt>
      <trkpt lat="44.6964" lon="5.63574">
        <ele>1130</ele>
        <time>2017-12-12T12:41:46Z</time>
      </trkpt>
      <trkpt lat="44.69636" lon="5.63591">
        <ele>1129</ele>
        <time>2017-12-12T12:43:46Z</time>
      </trkpt>
      <trkpt lat="44.69626" lon="5.63601">
        <ele>1126</ele>
        <time>2017-12-12T12:45:46Z</time>
      </trkpt>
      <trkpt lat="44.69625" lon="5.63588">
        <ele>1126</ele>
        <time>2017-12-12T12:47:46Z</time>
      </trkpt>
      <trkpt lat="44.69621" lon="5.6357">
        <ele>1124</ele>
        <time>2017-12-12T12:49:46Z</time>
      </trkpt>
      <trkpt lat="44.69614" lon="5.63563">
        <ele>1122</ele>
        <time>2017-12-12T12:51:46Z</time>
      </trkpt>
      <trkpt lat="44.69603" lon="5.63545">
        <ele>1118</ele>
        <time>2017-12-12T12:53:46Z</time>
      </trkpt>
      <trkpt lat="44.69618" lon="5.63542">
        <ele>1124.5</ele>
      </trkpt>
      <trkpt lat="44.69636" lon="5.63546">
        <ele>1128.3</ele>
      </trkpt>
      <trkpt lat="44.69649" lon="5.63548">
        <ele>1131.6</ele>
      </trkpt>
      <trkpt lat="44.69659" lon="5.63549">
        <ele>1134.1</ele>
      </trkpt>
      <trkpt lat="44.69668" lon="5.63557">
        <ele>1137.3</ele>
      </trkpt>
      <trkpt lat="44.69679" lon="5.63566">
        <ele>1140.5</ele>
      </trkpt>
      <trkpt lat="44.69689" lon="5.63565">
        <ele>1143.5</ele>
      </trkpt>
      <trkpt lat="44.69697" lon="5.63582">
        <ele>1147</ele>
      </trkpt>
      <trkpt lat="44.69706" lon="5.63605">
        <ele>1150.9</ele>
      </trkpt>
      <trkpt lat="44.69711" lon="5.63637">
        <ele>1153.7</ele>
      </trkpt>
      <trkpt lat="44.69717" lon="5.63663">
        <ele>1156.7</ele>
      </trkpt>
      <trkpt lat="44.69724" lon="5.6369">
        <ele>1160.5</ele>
      </trkpt>
      <trkpt lat="44.69734" lon="5.63724">
        <ele>1166.9</ele>
      </trkpt>
      <trkpt lat="44.69747" lon="5.63759">
        <ele>1175.8</ele>
      </trkpt>
      <trkpt lat="44.69762" lon="5.63789">
        <ele>1183.4</ele>
      </trkpt>
      <trkpt lat="44.69777" lon="5.6381">
        <ele>1189.9</ele>
      </trkpt>
      <trkpt lat="44.69791" lon="5.63828">
        <ele>1193.8</ele>
      </trkpt>
      <trkpt lat="44.69804" lon="5.63845">
        <ele>1197.9</ele>
      </trkpt>
      <trkpt lat="44.69823" lon="5.63863">
        <ele>1204.1</ele>
      </trkpt>
      <trkpt lat="44.69838" lon="5.63879">
        <ele>1208.2</ele>
      </trkpt>
      <trkpt lat="44.69844" lon="5.63888">
        <ele>1210.1</ele>
      </trkpt>
      <trkpt lat="44.69853" lon="5.63905">
        <ele>1213.3</ele>
      </trkpt>
      <trkpt lat="44.69861" lon="5.63933">
        <ele>1216.5</ele>
      </trkpt>
      <trkpt lat="44.6987" lon="5.63955">
        <ele>1219.9</ele>
      </trkpt>
      <trkpt lat="44.69876" lon="5.63973">
        <ele>1221.8</ele>
      </trkpt>
      <trkpt lat="44.69881" lon="5.63989">
        <ele>1222.7</ele>
      </trkpt>
      <trkpt lat="44.69885" lon="5.64004">
        <ele>1223.8</ele>
      </trkpt>
      <trkpt lat="44.69893" lon="5.64026">
        <ele>1226.1</ele>
      </trkpt>
      <trkpt lat="44.699" lon="5.64046">
        <ele>1227.8</ele>
      </trkpt>
      <trkpt lat="44.69904" lon="5.64058">
        <ele>1228.9</ele>
      </trkpt>
      <trkpt lat="44.69916" lon="5.64083">
        <ele>1232.7</ele>
      </trkpt>
      <trkpt lat="44.69923" lon="5.64102">
        <ele>1234.2</ele>
      </trkpt>
      <trkpt lat="44.6993" lon="5.64122">
        <ele>1236.6</ele>
      </trkpt>
      <trkpt lat="44.69934" lon="5.64135">
        <ele>1238</ele>
      </trkpt>
      <trkpt lat="44.69943" lon="5.64157">
        <ele>1240.6</ele>
      </trkpt>
      <trkpt lat="44.69953" lon="5.64172">
        <ele>1243.2</ele>
      </trkpt>
      <trkpt lat="44.69964" lon="5.64182">
        <ele>1246.2</ele>
      </trkpt>
      <trkpt lat="44.69977" lon="5.64192">
        <ele>1249.1</ele>
      </trkpt>
      <trkpt lat="44.69987" lon="5.642">
        <ele>1251</ele>
      </trkpt>
      <trkpt lat="44.70005" lon="5.64208">
        <ele>1254.7</ele>
      </trkpt>
      <trkpt lat="44.70013" lon="5.6423">
        <ele>1256.2</ele>
      </trkpt>
      <trkpt lat="44.70023" lon="5.64237">
        <ele>1258.7</ele>
      </trkpt>
      <trkpt lat="44.70037" lon="5.64248">
        <ele>1262.4</ele>
      </trkpt>
      <trkpt lat="44.70049" lon="5.64258">
        <ele>1265.4</ele>
      </trkpt>
      <trkpt lat="44.70063" lon="5.6427">
        <ele>1269.2</ele>
      </trkpt>
      <trkpt lat="44.70077" lon="5.6428">
        <ele>1273.2</ele>
      </trkpt>
      <trkpt lat="44.70087" lon="5.64286">
        <ele>1276</ele>
      </trkpt>
      <trkpt lat="44.70106" lon="5.64301">
        <ele>1280.7</ele>
      </trkpt>
      <trkpt lat="44.70111" lon="5.64308">
        <ele>1282</ele>
      </trkpt>
      <trkpt lat="44.7011" lon="5.6432">
        <ele>1282.2</ele>
      </trkpt>
      <trkpt lat="44.70113" lon="5.64328">
        <ele>1283.3</ele>
      </trkpt>
      <trkpt lat="44.7012" lon="5.64338">
        <ele>1285.5</ele>
      </trkpt>
      <trkpt lat="44.70126" lon="5.64356">
        <ele>1287.2</ele>
      </trkpt>
      <trkpt lat="44.70129" lon="5.64373">
        <ele>1288.4</ele>
      </trkpt>
      <trkpt lat="44.70133" lon="5.64378">
        <ele>1289.5</ele>
      </trkpt>
      <trkpt lat="44.70135" lon="5.64388">
        <ele>1290</ele>
      </trkpt>
      <trkpt lat="44.70139" lon="5.64395">
        <ele>1291</ele>
      </trkpt>
      <trkpt lat="44.70147" lon="5.64421">
        <ele>1293</ele>
      </trkpt>
      <trkpt lat="44.70156" lon="5.64441">
        <ele>1295.3</ele>
      </trkpt>
      <trkpt lat="44.70164" lon="5.64458">
        <ele>1296.7</ele>
      </trkpt>
      <trkpt lat="44.70168" lon="5.64469">
        <ele>1297.5</ele>
      </trkpt>
      <trkpt lat="44.70175" lon="5.64487">
        <ele>1299.1</ele>
      </trkpt>
      <trkpt lat="44.7018" lon="5.64506">
        <ele>1300.4</ele>
      </trkpt>
      <trkpt lat="44.70184" lon="5.64523">
        <ele>1301.8</ele>
      </trkpt>
      <trkpt lat="44.70189" lon="5.64543">
        <ele>1302.8</ele>
      </trkpt>
      <trkpt lat="44.70193" lon="5.64559">
        <ele>1303.6</ele>
      </trkpt>
      <trkpt lat="44.702" lon="5.64579">
        <ele>1304.5</ele>
      </trkpt>
      <trkpt lat="44.70206" lon="5.64598">
        <ele>1305.5</ele>
      </trkpt>
      <trkpt lat="44.70213" lon="5.64619">
        <ele>1307.4</ele>
      </trkpt>
      <trkpt lat="44.70223" lon="5.64636">
        <ele>1310.2</ele>
      </trkpt>
      <trkpt lat="44.70227" lon="5.64646">
        <ele>1311.5</ele>
      </trkpt>
      <trkpt lat="44.70227" lon="5.64667">
        <ele>1313.1</ele>
      </trkpt>
      <trkpt lat="44.70227" lon="5.64687">
        <ele>1315.1</ele>
      </trkpt>
      <trkpt lat="44.7023" lon="5.64705">
        <ele>1317.4</ele>
      </trkpt>
      <trkpt lat="44.70234" lon="5.64718">
        <ele>1319.2</ele>
      </trkpt>
      <trkpt lat="44.70242" lon="5.64739">
        <ele>1321.7</ele>
      </trkpt>
      <trkpt lat="44.70249" lon="5.64754">
        <ele>1323.6</ele>
      </trkpt>
      <trkpt lat="44.70254" lon="5.64765">
        <ele>1324.2</ele>
      </trkpt>
      <trkpt lat="44.70263" lon="5.6478">
        <ele>1325.2</ele>
      </trkpt>
      <trkpt lat="44.70275" lon="5.64789">
        <ele>1327.1</ele>
      </trkpt>
      <trkpt lat="44.70288" lon="5.648">
        <ele>1329.6</ele>
      </trkpt>
      <trkpt lat="44.70298" lon="5.64808">
        <ele>1331.4</ele>
      </trkpt>
      <trkpt lat="44.70308" lon="5.64817">
        <ele>1333.7</ele>
      </trkpt>
      <trkpt lat="44.70314" lon="5.64829">
        <ele>1335.1</ele>
      </trkpt>
      <trkpt lat="44.70315" lon="5.64846">
        <ele>1335.8</ele>
      </trkpt>
      <trkpt lat="44.70315" lon="5.64861">
        <ele>1336.4</ele>
      </trkpt>
      <trkpt lat="44.70317" lon="5.6488">
        <ele>1337.8</ele>
      </trkpt>
      <trkpt lat="44.7032" lon="5.64892">
        <ele>1339.2</ele>
      </trkpt>
      <trkpt lat="44.70327" lon="5.64893">
        <ele>1341.3</ele>
      </trkpt>
      <trkpt lat="44.70335" lon="5.64879">
        <ele>1342.7</ele>
      </trkpt>
      <trkpt lat="44.70341" lon="5.64868">
        <ele>1343.5</ele>
      </trkpt>
      <trkpt lat="44.70358" lon="5.64855">
        <ele>1347</ele>
      </trkpt>
      <trkpt lat="44.70366" lon="5.64872">
        <ele>1350</ele>
      </trkpt>
      <trkpt lat="44.70374" lon="5.64891">
        <ele>1353.9</ele>
      </trkpt>
      <trkpt lat="44.70383" lon="5.64911">
        <ele>1357.8</ele>
      </trkpt>
      <trkpt lat="44.70386" lon="5.64934">
        <ele>1360.3</ele>
      </trkpt>
      <trkpt lat="44.70389" lon="5.64958">
        <ele>1362.1</ele>
      </trkpt>
      <trkpt lat="44.70398" lon="5.64973">
        <ele>1364.9</ele>
      </trkpt>
      <trkpt lat="44.70406" lon="5.64986">
        <ele>1367.7</ele>
      </trkpt>
      <trkpt lat="44.70414" lon="5.64985">
        <ele>1370.6</ele>
      </trkpt>
      <trkpt lat="44.70416" lon="5.65002">
        <ele>1371.9</ele>
      </trkpt>
      <trkpt lat="44.70426" lon="5.65007">
        <ele>1375.8</ele>
      </trkpt>
      <trkpt lat="44.7043" lon="5.6503">
        <ele>1378.9</ele>
      </trkpt>
      <trkpt lat="44.70447" lon="5.65056">
        <ele>1388</ele>
      </trkpt>
      <trkpt lat="44.70458" lon="5.65075">
        <ele>1393.5</ele>
      </trkpt>
      <trkpt lat="44.70469" lon="5.65094">
        <ele>1399.4</ele>
      </trkpt>
      <trkpt lat="44.7048" lon="5.65113">
        <ele>1405</ele>
      </trkpt>
      <trkpt lat="44.70491" lon="5.65132">
        <ele>1411.3</ele>
      </trkpt>
      <trkpt lat="44.70498" lon="5.65161">
        <ele>1418.4</ele>
      </trkpt>
      <trkpt lat="44.70502" lon="5.65187">
        <ele>1425.3</ele>
      </trkpt>
      <trkpt lat="44.70508" lon="5.65214">
        <ele>1432.8</ele>
      </trkpt>
      <trkpt lat="44.70514" lon="5.65237">
        <ele>1438.6</ele>
      </trkpt>
      <trkpt lat="44.70534" lon="5.65257">
        <ele>1446</ele>
      </trkpt>
      <trkpt lat="44.70552" lon="5.65256">
        <ele>1449.6</ele>
      </trkpt>
      <trkpt lat="44.70567" lon="5.65255">
        <ele>1452.9</ele>
      </trkpt>
      <trkpt lat="44.70581" lon="5.65255">
        <ele>1455.9</ele>
      </trkpt>
      <trkpt lat="44.70599" lon="5.65255">
        <ele>1461</ele>
      </trkpt>
      <trkpt lat="44.70587" lon="5.6524">
        <ele>1455.3</ele>
      </trkpt>
      <trkpt lat="44.70581" lon="5.65223">
        <ele>1452.6</ele>
      </trkpt>
      <trkpt lat="44.70583" lon="5.65203">
        <ele>1453</ele>
      </trkpt>
      <trkpt lat="44.70592" lon="5.65181">
        <ele>1456.1</ele>
      </trkpt>
      <trkpt lat="44.70602" lon="5.65164">
        <ele>1459.5</ele>
      </trkpt>
      <trkpt lat="44.70609" lon="5.65152">
        <ele>1461.7</ele>
      </trkpt>
      <trkpt lat="44.70628" lon="5.65129">
        <ele>1466.7</ele>
      </trkpt>
      <trkpt lat="44.70646" lon="5.65121">
        <ele>1471.6</ele>
      </trkpt>
      <trkpt lat="44.70666" lon="5.65112">
        <ele>1476.8</ele>
      </trkpt>
      <trkpt lat="44.70681" lon="5.65104">
        <ele>1478.9</ele>
      </trkpt>
      <trkpt lat="44.70694" lon="5.65096">
        <ele>1480.3</ele>
      </trkpt>
      <trkpt lat="44.70707" lon="5.6509">
        <ele>1481.3</ele>
      </trkpt>
      <trkpt lat="44.70726" lon="5.65081">
        <ele>1482.9</ele>
      </trkpt>
      <trkpt lat="44.70738" lon="5.65074">
        <ele>1483.1</ele>
      </trkpt>
      <trkpt lat="44.70751" lon="5.65067">
        <ele>1483.3</ele>
      </trkpt>
      <trkpt lat="44.70765" lon="5.65056">
        <ele>1482.9</ele>
      </trkpt>
      <trkpt lat="44.70785" lon="5.65042">
        <ele>1484.5</ele>
      </trkpt>
      <trkpt lat="44.70794" lon="5.65025">
        <ele>1484.6</ele>
      </trkpt>
      <trkpt lat="44.708" lon="5.65011">
        <ele>1486.1</ele>
      </trkpt>
      <trkpt lat="44.70802" lon="5.65001">
        <ele>1486.6</ele>
      </trkpt>
      <trkpt lat="44.70798" lon="5.64987">
        <ele>1486.4</ele>
      </trkpt>
      <trkpt lat="44.70792" lon="5.64971">
        <ele>1485.4</ele>
      </trkpt>
      <trkpt lat="44.70786" lon="5.64957">
        <ele>1484.2</ele>
      </trkpt>
      <trkpt lat="44.70779" lon="5.64949">
        <ele>1482.2</ele>
      </trkpt>
      <trkpt lat="44.7077" lon="5.64925">
        <ele>1479.9</ele>
      </trkpt>
      <trkpt lat="44.70774" lon="5.64916">
        <ele>1482.2</ele>
      </trkpt>
      <trkpt lat="44.70774" lon="5.64896">
        <ele>1481.5</ele>
      </trkpt>
      <trkpt lat="44.70777" lon="5.6488">
        <ele>1481.7</ele>
      </trkpt>
      <trkpt lat="44.70784" lon="5.64864">
        <ele>1482.4</ele>
      </trkpt>
      <trkpt lat="44.70789" lon="5.64849">
        <ele>1482.8</ele>
      </trkpt>
      <trkpt lat="44.70798" lon="5.64834">
        <ele>1484.4</ele>
      </trkpt>
      <trkpt lat="44.70805" lon="5.64818">
        <ele>1485.8</ele>
      </trkpt>
      <trkpt lat="44.70809" lon="5.64803">
        <ele>1486.2</ele>
      </trkpt>
      <trkpt lat="44.70811" lon="5.6479">
        <ele>1486.9</ele>
      </trkpt>
      <trkpt lat="44.70809" lon="5.6477">
        <ele>1486.6</ele>
      </trkpt>
      <trkpt lat="44.70807" lon="5.64752">
        <ele>1486.5</ele>
      </trkpt>
      <trkpt lat="44.70808" lon="5.64731">
        <ele>1489</ele>
      </trkpt>
      <trkpt lat="44.70808" lon="5.64714">
        <ele>1491.1</ele>
      </trkpt>
      <trkpt lat="44.70808" lon="5.6469">
        <ele>1494.5</ele>
      </trkpt>
      <trkpt lat="44.70806" lon="5.64671">
        <ele>1496.6</ele>
      </trkpt>
      <trkpt lat="44.70804" lon="5.64648">
        <ele>1498.9</ele>
      </trkpt>
      <trkpt lat="44.70801" lon="5.64623">
        <ele>1501.9</ele>
      </trkpt>
      <trkpt lat="44.70794" lon="5.64586">
        <ele>1505</ele>
      </trkpt>
      <trkpt lat="44.70791" lon="5.64563">
        <ele>1508.4</ele>
      </trkpt>
      <trkpt lat="44.70789" lon="5.64542">
        <ele>1511.6</ele>
      </trkpt>
      <trkpt lat="44.70787" lon="5.64522">
        <ele>1514.4</ele>
      </trkpt>
      <trkpt lat="44.70782" lon="5.64496">
        <ele>1517.9</ele>
      </trkpt>
      <trkpt lat="44.70778" lon="5.64471">
        <ele>1521.4</ele>
      </trkpt>
      <trkpt lat="44.70774" lon="5.6445">
        <ele>1524.2</ele>
      </trkpt>
      <trkpt lat="44.70772" lon="5.64433">
        <ele>1526.2</ele>
      </trkpt>
      <trkpt lat="44.70767" lon="5.64411">
        <ele>1528.3</ele>
      </trkpt>
      <trkpt lat="44.70761" lon="5.64388">
        <ele>1530.7</ele>
      </trkpt>
      <trkpt lat="44.70755" lon="5.64359">
        <ele>1533.2</ele>
      </trkpt>
      <trkpt lat="44.70746" lon="5.64323">
        <ele>1536.1</ele>
      </trkpt>
      <trkpt lat="44.70736" lon="5.64291">
        <ele>1538.2</ele>
      </trkpt>
      <trkpt lat="44.70727" lon="5.64266">
        <ele>1539.4</ele>
      </trkpt>
      <trkpt lat="44.70719" lon="5.64244">
        <ele>1541</ele>
      </trkpt>
      <trkpt lat="44.70712" lon="5.64224">
        <ele>1542</ele>
      </trkpt>
      <trkpt lat="44.70702" lon="5.64196">
        <ele>1543.8</ele>
      </trkpt>
      <trkpt lat="44.70699" lon="5.64176">
        <ele>1545.1</ele>
      </trkpt>
      <trkpt lat="44.70699" lon="5.64163">
        <ele>1547.2</ele>
      </trkpt>
      <trkpt lat="44.70706" lon="5.64183">
        <ele>1548</ele>
      </trkpt>
      <trkpt lat="44.70721" lon="5.64204">
        <ele>1551.1</ele>
      </trkpt>
      <trkpt lat="44.70734" lon="5.64223">
        <ele>1553.6</ele>
      </trkpt>
      <trkpt lat="44.70743" lon="5.64233">
        <ele>1555.3</ele>
      </trkpt>
      <trkpt lat="44.70753" lon="5.64245">
        <ele>1556.8</ele>
      </trkpt>
      <trkpt lat="44.70766" lon="5.64258">
        <ele>1560.4</ele>
      </trkpt>
      <trkpt lat="44.70778" lon="5.6427">
        <ele>1562.9</ele>
      </trkpt>
      <trkpt lat="44.70792" lon="5.64285">
        <ele>1565.5</ele>
      </trkpt>
      <trkpt lat="44.70805" lon="5.64299">
        <ele>1567.5</ele>
      </trkpt>
      <trkpt lat="44.70817" lon="5.64312">
        <ele>1570</ele>
      </trkpt>
      <trkpt lat="44.70828" lon="5.64325">
        <ele>1572.5</ele>
      </trkpt>
      <trkpt lat="44.70841" lon="5.64339">
        <ele>1575.2</ele>
      </trkpt>
      <trkpt lat="44.70853" lon="5.64353">
        <ele>1577.9</ele>
      </trkpt>
      <trkpt lat="44.70863" lon="5.64364">
        <ele>1580.3</ele>
      </trkpt>
      <trkpt lat="44.70877" lon="5.64382">
        <ele>1582.9</ele>
      </trkpt>
      <trkpt lat="44.7089" lon="5.64398">
        <ele>1585.5</ele>
      </trkpt>
      <trkpt lat="44.70902" lon="5.64412">
        <ele>1588.2</ele>
      </trkpt>
      <trkpt lat="44.70913" lon="5.64423">
        <ele>1591.4</ele>
      </trkpt>
      <trkpt lat="44.70919" lon="5.64422">
        <ele>1594.9</ele>
      </trkpt>
      <trkpt lat="44.70932" lon="5.6444">
        <ele>1596.6</ele>
      </trkpt>
      <trkpt lat="44.70941" lon="5.64454">
        <ele>1598.1</ele>
      </trkpt>
      <trkpt lat="44.70953" lon="5.6447">
        <ele>1600.5</ele>
      </trkpt>
      <trkpt lat="44.70963" lon="5.64485">
        <ele>1602.8</ele>
      </trkpt>
      <trkpt lat="44.70972" lon="5.64499">
        <ele>1604.9</ele>
      </trkpt>
      <trkpt lat="44.70981" lon="5.64516">
        <ele>1607.1</ele>
      </trkpt>
      <trkpt lat="44.70994" lon="5.64535">
        <ele>1609.9</ele>
      </trkpt>
      <trkpt lat="44.71003" lon="5.64551">
        <ele>1611.9</ele>
      </trkpt>
      <trkpt lat="44.71009" lon="5.64554">
        <ele>1614.4</ele>
      </trkpt>
      <trkpt lat="44.71004" lon="5.6453">
        <ele>1617.2</ele>
      </trkpt>
      <trkpt lat="44.71002" lon="5.64514">
        <ele>1619.5</ele>
      </trkpt>
      <trkpt lat="44.70999" lon="5.64495">
        <ele>1622.3</ele>
      </trkpt>
      <trkpt lat="44.70996" lon="5.64477">
        <ele>1624.4</ele>
      </trkpt>
      <trkpt lat="44.70993" lon="5.64462">
        <ele>1625.9</ele>
      </trkpt>
      <trkpt lat="44.7099" lon="5.64443">
        <ele>1627.7</ele>
      </trkpt>
      <trkpt lat="44.70987" lon="5.64426">
        <ele>1629.8</ele>
      </trkpt>
      <trkpt lat="44.70984" lon="5.6441">
        <ele>1631.8</ele>
      </trkpt>
      <trkpt lat="44.70982" lon="5.64398">
        <ele>1633.2</ele>
      </trkpt>
      <trkpt lat="44.70977" lon="5.64375">
        <ele>1635.5</ele>
      </trkpt>
      <trkpt lat="44.70971" lon="5.64355">
        <ele>1636.6</ele>
      </trkpt>
      <trkpt lat="44.70967" lon="5.64333">
        <ele>1639.2</ele>
      </trkpt>
      <trkpt lat="44.70963" lon="5.64315">
        <ele>1642.7</ele>
      </trkpt>
      <trkpt lat="44.70956" lon="5.6429">
        <ele>1645.3</ele>
      </trkpt>
      <trkpt lat="44.70951" lon="5.64268">
        <ele>1648.3</ele>
      </trkpt>
      <trkpt lat="44.70946" lon="5.64248">
        <ele>1651.5</ele>
      </trkpt>
      <trkpt lat="44.70941" lon="5.64229">
        <ele>1653.6</ele>
      </trkpt>
      <trkpt lat="44.70936" lon="5.64208">
        <ele>1656.3</ele>
      </trkpt>
      <trkpt lat="44.70931" lon="5.64189">
        <ele>1658.8</ele>
      </trkpt>
      <trkpt lat="44.70926" lon="5.64172">
        <ele>1661.1</ele>
      </trkpt>
      <trkpt lat="44.70939" lon="5.64183">
        <ele>1664.1</ele>
      </trkpt>
      <trkpt lat="44.70947" lon="5.6419">
        <ele>1666.7</ele>
      </trkpt>
      <trkpt lat="44.70961" lon="5.64205">
        <ele>1670.4</ele>
      </trkpt>
      <trkpt lat="44.70971" lon="5.64216">
        <ele>1672.9</ele>
      </trkpt>
      <trkpt lat="44.7098" lon="5.64226">
        <ele>1675</ele>
      </trkpt>
      <trkpt lat="44.70991" lon="5.64236">
        <ele>1677.4</ele>
      </trkpt>
      <trkpt lat="44.71001" lon="5.64247">
        <ele>1679.5</ele>
      </trkpt>
      <trkpt lat="44.71014" lon="5.64259">
        <ele>1682.5</ele>
      </trkpt>
      <trkpt lat="44.71027" lon="5.6427">
        <ele>1686</ele>
      </trkpt>
      <trkpt lat="44.71039" lon="5.6428">
        <ele>1688.7</ele>
      </trkpt>
      <trkpt lat="44.71049" lon="5.64289">
        <ele>1691.1</ele>
      </trkpt>
      <trkpt lat="44.71062" lon="5.64303">
        <ele>1694</ele>
      </trkpt>
      <trkpt lat="44.71075" lon="5.64321">
        <ele>1697.2</ele>
      </trkpt>
      <trkpt lat="44.71084" lon="5.64338">
        <ele>1699</ele>
      </trkpt>
      <trkpt lat="44.71095" lon="5.64355">
        <ele>1702.6</ele>
      </trkpt>
      <trkpt lat="44.71105" lon="5.64372">
        <ele>1705.4</ele>
      </trkpt>
      <trkpt lat="44.71115" lon="5.64386">
        <ele>1707.8</ele>
      </trkpt>
      <trkpt lat="44.71128" lon="5.64404">
        <ele>1711.1</ele>
      </trkpt>
      <trkpt lat="44.71135" lon="5.64416">
        <ele>1713.1</ele>
      </trkpt>
      <trkpt lat="44.7115" lon="5.64434">
        <ele>1716.7</ele>
      </trkpt>
      <trkpt lat="44.71158" lon="5.64449">
        <ele>1718.1</ele>
      </trkpt>
      <trkpt lat="44.71165" lon="5.64463">
        <ele>1720</ele>
      </trkpt>
      <trkpt lat="44.71174" lon="5.64477">
        <ele>1722.3</ele>
      </trkpt>
      <trkpt lat="44.71182" lon="5.64491">
        <ele>1724.1</ele>
      </trkpt>
      <trkpt lat="44.71194" lon="5.64507">
        <ele>1727.6</ele>
      </trkpt>
      <trkpt lat="44.71205" lon="5.64524">
        <ele>1730.6</ele>
      </trkpt>
      <trkpt lat="44.71212" lon="5.64537">
        <ele>1732.7</ele>
      </trkpt>
      <trkpt lat="44.71223" lon="5.64555">
        <ele>1735.3</ele>
      </trkpt>
      <trkpt lat="44.71231" lon="5.64572">
        <ele>1737.6</ele>
      </trkpt>
      <trkpt lat="44.71244" lon="5.64594">
        <ele>1740.9</ele>
      </trkpt>
      <trkpt lat="44.71253" lon="5.6461">
        <ele>1742.8</ele>
      </trkpt>
      <trkpt lat="44.71262" lon="5.64627">
        <ele>1744.7</ele>
      </trkpt>
      <trkpt lat="44.71271" lon="5.64643">
        <ele>1747.2</ele>
      </trkpt>
      <trkpt lat="44.71279" lon="5.64656">
        <ele>1749.4</ele>
      </trkpt>
      <trkpt lat="44.71287" lon="5.64669">
        <ele>1752</ele>
      </trkpt>
      <trkpt lat="44.71298" lon="5.64686">
        <ele>1755.7</ele>
      </trkpt>
      <trkpt lat="44.71305" lon="5.64701">
        <ele>1757.8</ele>
      </trkpt>
      <trkpt lat="44.71312" lon="5.64713">
        <ele>1760.4</ele>
      </trkpt>
      <trkpt lat="44.71317" lon="5.64725">
        <ele>1762.4</ele>
      </trkpt>
      <trkpt lat="44.71321" lon="5.64741">
        <ele>1763.7</ele>
      </trkpt>
      <trkpt lat="44.71325" lon="5.64759">
        <ele>1765.5</ele>
      </trkpt>
      <trkpt lat="44.7133" lon="5.64775">
        <ele>1767.8</ele>
      </trkpt>
      <trkpt lat="44.71335" lon="5.6479">
        <ele>1770</ele>
      </trkpt>
      <trkpt lat="44.7134" lon="5.64805">
        <ele>1771.9</ele>
      </trkpt>
      <trkpt lat="44.71345" lon="5.64816">
        <ele>1773.7</ele>
      </trkpt>
      <trkpt lat="44.71356" lon="5.64835">
        <ele>1777.9</ele>
      </trkpt>
      <trkpt lat="44.71361" lon="5.64834">
        <ele>1780.8</ele>
      </trkpt>
      <trkpt lat="44.71363" lon="5.64825">
        <ele>1783</ele>
      </trkpt>
      <trkpt lat="44.71364" lon="5.64815">
        <ele>1784.5</ele>
      </trkpt>
      <trkpt lat="44.71379" lon="5.64835">
        <ele>1789.6</ele>
      </trkpt>
      <trkpt lat="44.71381" lon="5.64826">
        <ele>1792.2</ele>
      </trkpt>
      <trkpt lat="44.71386" lon="5.64833">
        <ele>1793.7</ele>
      </trkpt>
      <trkpt lat="44.71393" lon="5.64828">
        <ele>1798.3</ele>
      </trkpt>
      <trkpt lat="44.71397" lon="5.64836">
        <ele>1799.1</ele>
      </trkpt>
      <trkpt lat="44.71406" lon="5.64847">
        <ele>1802.3</ele>
      </trkpt>
      <trkpt lat="44.71412" lon="5.64858">
        <ele>1804</ele>
      </trkpt>
      <trkpt lat="44.71418" lon="5.64864">
        <ele>1806.5</ele>
      </trkpt>
      <trkpt lat="44.71426" lon="5.64868">
        <ele>1810.3</ele>
      </trkpt>
      <trkpt lat="44.71433" lon="5.64875">
        <ele>1813.6</ele>
      </trkpt>
      <trkpt lat="44.71445" lon="5.64884">
        <ele>1818.5</ele>
      </trkpt>
      <trkpt lat="44.71461" lon="5.64888">
        <ele>1824.1</ele>
      </trkpt>
      <trkpt lat="44.7147" lon="5.64894">
        <ele>1827</ele>
      </trkpt>
      <trkpt lat="44.71476" lon="5.649">
        <ele>1828.5</ele>
      </trkpt>
      <trkpt lat="44.71484" lon="5.64905">
        <ele>1830.3</ele>
      </trkpt>
      <trkpt lat="44.71496" lon="5.64908">
        <ele>1832.9</ele>
      </trkpt>
      <trkpt lat="44.71507" lon="5.64911">
        <ele>1834.7</ele>
      </trkpt>
      <trkpt lat="44.71492" lon="5.64892">
        <ele>1833.4</ele>
      </trkpt>
      <trkpt lat="44.71506" lon="5.64891">
        <ele>1836.7</ele>
      </trkpt>
      <trkpt lat="44.7152" lon="5.6489">
        <ele>1839.5</ele>
      </trkpt>
      <trkpt lat="44.71531" lon="5.64887">
        <ele>1841.3</ele>
      </trkpt>
      <trkpt lat="44.7154" lon="5.64886">
        <ele>1841.2</ele>
      </trkpt>
      <trkpt lat="44.71548" lon="5.64868">
        <ele>1845.3</ele>
      </trkpt>
      <trkpt lat="44.71555" lon="5.64857">
        <ele>1848.3</ele>
      </trkpt>
      <trkpt lat="44.71569" lon="5.64839">
        <ele>1851.3</ele>
      </trkpt>
      <trkpt lat="44.71581" lon="5.64826">
        <ele>1854</ele>
      </trkpt>
      <trkpt lat="44.71593" lon="5.64814">
        <ele>1856.3</ele>
      </trkpt>
      <trkpt lat="44.71604" lon="5.64803">
        <ele>1858.4</ele>
      </trkpt>
      <trkpt lat="44.71612" lon="5.64795">
        <ele>1860</ele>
      </trkpt>
      <trkpt lat="44.71624" lon="5.64785">
        <ele>1862</ele>
      </trkpt>
      <trkpt lat="44.71636" lon="5.64774">
        <ele>1864</ele>
      </trkpt>
      <trkpt lat="44.71647" lon="5.64763">
        <ele>1866.7</ele>
      </trkpt>
      <trkpt lat="44.71656" lon="5.64754">
        <ele>1869</ele>
      </trkpt>
      <trkpt lat="44.71667" lon="5.64744">
        <ele>1871.4</ele>
      </trkpt>
      <trkpt lat="44.71678" lon="5.64734">
        <ele>1874.7</ele>
      </trkpt>
      <trkpt lat="44.71693" lon="5.64725">
        <ele>1877</ele>
      </trkpt>
      <trkpt lat="44.71704" lon="5.64717">
        <ele>1880.5</ele>
      </trkpt>
      <trkpt lat="44.71717" lon="5.64711">
        <ele>1883.1</ele>
      </trkpt>
      <trkpt lat="44.71725" lon="5.64702">
        <ele>1887.5</ele>
      </trkpt>
      <trkpt lat="44.71739" lon="5.64694">
        <ele>1892.7</ele>
      </trkpt>
      <trkpt lat="44.71753" lon="5.64689">
        <ele>1896.9</ele>
      </trkpt>
      <trkpt lat="44.71768" lon="5.64684">
        <ele>1901.6</ele>
      </trkpt>
      <trkpt lat="44.7178" lon="5.64681">
        <ele>1905.4</ele>
      </trkpt>
      <trkpt lat="44.71795" lon="5.64673">
        <ele>1910.8</ele>
      </trkpt>
      <trkpt lat="44.71808" lon="5.64668">
        <ele>1915</ele>
      </trkpt>
      <trkpt lat="44.7182" lon="5.64663">
        <ele>1918.3</ele>
      </trkpt>
      <trkpt lat="44.71832" lon="5.64655">
        <ele>1921.5</ele>
      </trkpt>
      <trkpt lat="44.7185" lon="5.64646">
        <ele>1924.8</ele>
      </trkpt>
      <trkpt lat="44.71863" lon="5.64654">
        <ele>1926.2</ele>
      </trkpt>
      <trkpt lat="44.71878" lon="5.64663">
        <ele>1928.2</ele>
      </trkpt>
      <trkpt lat="44.71895" lon="5.64671">
        <ele>1930.5</ele>
      </trkpt>
      <trkpt lat="44.71908" lon="5.64678">
        <ele>1932.7</ele>
      </trkpt>
      <trkpt lat="44.7192" lon="5.64684">
        <ele>1935.2</ele>
      </trkpt>
      <trkpt lat="44.71931" lon="5.64692">
        <ele>1938</ele>
      </trkpt>
      <trkpt lat="44.71939" lon="5.64697">
        <ele>1939.6</ele>
      </trkpt>
      <trkpt lat="44.71952" lon="5.64706">
        <ele>1942.7</ele>
      </trkpt>
      <trkpt lat="44.71965" lon="5.64714">
        <ele>1946.8</ele>
      </trkpt>
      <trkpt lat="44.71982" lon="5.64725">
        <ele>1953.1</ele>
      </trkpt>
      <trkpt lat="44.71991" lon="5.64728">
        <ele>1955.6</ele>
      </trkpt>
      <trkpt lat="44.72006" lon="5.6473">
        <ele>1959.7</ele>
      </trkpt>
      <trkpt lat="44.72019" lon="5.64728">
        <ele>1963.1</ele>
      </trkpt>
      <trkpt lat="44.72034" lon="5.64728">
        <ele>1966.7</ele>
      </trkpt>
      <trkpt lat="44.72044" lon="5.64727">
        <ele>1969.5</ele>
      </trkpt>
      <trkpt lat="44.72056" lon="5.64727">
        <ele>1972.3</ele>
      </trkpt>
      <trkpt lat="44.72069" lon="5.64725">
        <ele>1975.5</ele>
      </trkpt>
      <trkpt lat="44.72081" lon="5.64722">
        <ele>1978.5</ele>
      </trkpt>
      <trkpt lat="44.72093" lon="5.6472">
        <ele>1980</ele>
      </trkpt>
      <trkpt lat="44.72105" lon="5.64714">
        <ele>1981.1</ele>
      </trkpt>
      <trkpt lat="44.72116" lon="5.64709">
        <ele>1982.3</ele>
      </trkpt>
      <trkpt lat="44.7213" lon="5.64701">
        <ele>1984.7</ele>
      </trkpt>
      <trkpt lat="44.7214" lon="5.64699">
        <ele>1987</ele>
      </trkpt>
      <trkpt lat="44.72153" lon="5.64699">
        <ele>1989.5</ele>
      </trkpt>
      <trkpt lat="44.72165" lon="5.647">
        <ele>1991.8</ele>
      </trkpt>
      <trkpt lat="44.72178" lon="5.64699">
        <ele>1994.6</ele>
      </trkpt>
      <trkpt lat="44.7219" lon="5.64697">
        <ele>1997.6</ele>
      </trkpt>
      <trkpt lat="44.72207" lon="5.64694">
        <ele>2000.8</ele>
      </trkpt>
      <trkpt lat="44.72218" lon="5.64691">
        <ele>2002.3</ele>
      </trkpt>
      <trkpt lat="44.72229" lon="5.64688">
        <ele>2004.5</ele>
      </trkpt>
      <trkpt lat="44.72243" lon="5.64687">
        <ele>2007.4</ele>
      </trkpt>
      <trkpt lat="44.7226" lon="5.6469">
        <ele>2010.7</ele>
      </trkpt>
      <trkpt lat="44.72277" lon="5.6469">
        <ele>2013.7</ele>
      </trkpt>
      <trkpt lat="44.72289" lon="5.64685">
        <ele>2014.9</ele>
      </trkpt>
      <trkpt lat="44.72299" lon="5.64682">
        <ele>2015.8</ele>
      </trkpt>
      <trkpt lat="44.72317" lon="5.64683">
        <ele>2019</ele>
      </trkpt>
      <trkpt lat="44.72331" lon="5.64687">
        <ele>2022.9</ele>
      </trkpt>
      <trkpt lat="44.72344" lon="5.64694">
        <ele>2027.9</ele>
      </trkpt>
      <trkpt lat="44.72358" lon="5.64696">
        <ele>2031.8</ele>
      </trkpt>
      <trkpt lat="44.72374" lon="5.64698">
        <ele>2035.8</ele>
      </trkpt>
      <trkpt lat="44.72393" lon="5.64705">
        <ele>2039.9</ele>
      </trkpt>
      <trkpt lat="44.72413" lon="5.6471">
        <ele>2043.4</ele>
      </trkpt>
      <trkpt lat="44.72426" lon="5.64696">
        <ele>2042</ele>
      </trkpt>
      <trkpt lat="44.72442" lon="5.64678">
        <ele>2035.3</ele>
      </trkpt>
      <trkpt lat="44.72458" lon="5.64671">
        <ele>2031.7</ele>
      </trkpt>
      <trkpt lat="44.72472" lon="5.64666">
        <ele>2030</ele>
      </trkpt>
      <trkpt lat="44.72486" lon="5.64661">
        <ele>2025.1</ele>
      </trkpt>
      <trkpt lat="44.72502" lon="5.64654">
        <ele>2021.2</ele>
      </trkpt>
      <trkpt lat="44.72517" lon="5.64648">
        <ele>2017.3</ele>
      </trkpt>
      <trkpt lat="44.72534" lon="5.64642">
        <ele>2014.3</ele>
      </trkpt>
      <trkpt lat="44.72553" lon="5.64634">
        <ele>2009.8</ele>
      </trkpt>
      <trkpt lat="44.72568" lon="5.64628">
        <ele>2006</ele>
      </trkpt>
      <trkpt lat="44.72582" lon="5.64622">
        <ele>2003.2</ele>
      </trkpt>
      <trkpt lat="44.72597" lon="5.64616">
        <ele>2001.2</ele>
      </trkpt>
      <trkpt lat="44.72614" lon="5.6461">
        <ele>1999.7</ele>
      </trkpt>
      <trkpt lat="44.72635" lon="5.64601">
        <ele>1998.5</ele>
      </trkpt>
      <trkpt lat="44.72652" lon="5.64596">
        <ele>1997.7</ele>
      </trkpt>
      <trkpt lat="44.72672" lon="5.64592">
        <ele>1997.5</ele>
      </trkpt>
      <trkpt lat="44.72688" lon="5.64587">
        <ele>1997.9</ele>
      </trkpt>
      <trkpt lat="44.72706" lon="5.64584">
        <ele>1999.3</ele>
      </trkpt>
      <trkpt lat="44.72724" lon="5.6458">
        <ele>1999.6</ele>
      </trkpt>
      <trkpt lat="44.72743" lon="5.64576">
        <ele>1998.6</ele>
      </trkpt>
      <trkpt lat="44.7276" lon="5.64572">
        <ele>1996.8</ele>
      </trkpt>
      <trkpt lat="44.72777" lon="5.64568">
        <ele>1994.9</ele>
      </trkpt>
      <trkpt lat="44.72799" lon="5.64563">
        <ele>1992.7</ele>
      </trkpt>
      <trkpt lat="44.72819" lon="5.64557">
        <ele>1992</ele>
      </trkpt>
      <trkpt lat="44.72839" lon="5.6455">
        <ele>1990.1</ele>
      </trkpt>
      <trkpt lat="44.72854" lon="5.64545">
        <ele>1988.5</ele>
      </trkpt>
      <trkpt lat="44.72876" lon="5.64539">
        <ele>1987.3</ele>
      </trkpt>
      <trkpt lat="44.72892" lon="5.64533">
        <ele>1986.9</ele>
      </trkpt>
      <trkpt lat="44.72911" lon="5.64527">
        <ele>1986.9</ele>
      </trkpt>
      <trkpt lat="44.7293" lon="5.6452">
        <ele>1983.5</ele>
      </trkpt>
      <trkpt lat="44.7295" lon="5.64512">
        <ele>1980.9</ele>
      </trkpt>
      <trkpt lat="44.72965" lon="5.64498">
        <ele>1980.4</ele>
      </trkpt>
      <trkpt lat="44.72978" lon="5.64487">
        <ele>1975.4</ele>
      </trkpt>
      <trkpt lat="44.72997" lon="5.64479">
        <ele>1976.6</ele>
      </trkpt>
      <trkpt lat="44.73016" lon="5.6447">
        <ele>1977.9</ele>
      </trkpt>
      <trkpt lat="44.73038" lon="5.6446">
        <ele>1975.3</ele>
      </trkpt>
      <trkpt lat="44.73061" lon="5.64449">
        <ele>1972.7</ele>
      </trkpt>
      <trkpt lat="44.73081" lon="5.6444">
        <ele>1967.8</ele>
      </trkpt>
      <trkpt lat="44.73097" lon="5.64433">
        <ele>1969</ele>
      </trkpt>
      <trkpt lat="44.73114" lon="5.64427">
        <ele>1975.7</ele>
      </trkpt>
      <trkpt lat="44.73129" lon="5.64428">
        <ele>1980.6</ele>
      </trkpt>
      <trkpt lat="44.73148" lon="5.64429">
        <ele>1984.8</ele>
      </trkpt>
      <trkpt lat="44.73174" lon="5.6443">
        <ele>1986.6</ele>
      </trkpt>
      <trkpt lat="44.73173" lon="5.64414">
        <ele>1989.2</ele>
      </trkpt>
      <trkpt lat="44.73174" lon="5.64394">
        <ele>1987.6</ele>
      </trkpt>
      <trkpt lat="44.73176" lon="5.64372">
        <ele>1979.9</ele>
      </trkpt>
      <trkpt lat="44.73184" lon="5.64345">
        <ele>1973.5</ele>
      </trkpt>
      <trkpt lat="44.7319" lon="5.6432">
        <ele>1971.1</ele>
      </trkpt>
      <trkpt lat="44.732" lon="5.64306">
        <ele>1967</ele>
      </trkpt>
      <trkpt lat="44.73208" lon="5.643">
        <ele>1960.5</ele>
      </trkpt>
      <trkpt lat="44.73225" lon="5.64297">
        <ele>1947.8</ele>
      </trkpt>
      <trkpt lat="44.73247" lon="5.64292">
        <ele>1931</ele>
      </trkpt>
      <trkpt lat="44.73263" lon="5.643">
        <ele>1919.3</ele>
      </trkpt>
      <trkpt lat="44.73279" lon="5.64305">
        <ele>1908.3</ele>
      </trkpt>
      <trkpt lat="44.7329" lon="5.64297">
        <ele>1900.1</ele>
      </trkpt>
      <trkpt lat="44.73298" lon="5.64291">
        <ele>1893.9</ele>
      </trkpt>
      <trkpt lat="44.73314" lon="5.64286">
        <ele>1882.2</ele>
      </trkpt>
      <trkpt lat="44.73332" lon="5.64282">
        <ele>1869.8</ele>
      </trkpt>
      <trkpt lat="44.73335" lon="5.64271">
        <ele>1866.3</ele>
      </trkpt>
      <trkpt lat="44.73357" lon="5.64263">
        <ele>1850.2</ele>
      </trkpt>
      <trkpt lat="44.73367" lon="5.64253">
        <ele>1843.1</ele>
      </trkpt>
      <trkpt lat="44.73376" lon="5.64246">
        <ele>1836.6</ele>
      </trkpt>
      <trkpt lat="44.73384" lon="5.6424">
        <ele>1829.9</ele>
      </trkpt>
      <trkpt lat="44.73387" lon="5.6421">
        <ele>1817.3</ele>
      </trkpt>
      <trkpt lat="44.73386" lon="5.64199">
        <ele>1814.5</ele>
      </trkpt>
      <trkpt lat="44.73383" lon="5.64183">
        <ele>1811.4</ele>
      </trkpt>
      <trkpt lat="44.73382" lon="5.64164">
        <ele>1805.8</ele>
      </trkpt>
      <trkpt lat="44.73373" lon="5.64139">
        <ele>1800.6</ele>
      </trkpt>
      <trkpt lat="44.73366" lon="5.64126">
        <ele>1800</ele>
      </trkpt>
      <trkpt lat="44.73357" lon="5.64109">
        <ele>1800.4</ele>
      </trkpt>
      <trkpt lat="44.73354" lon="5.64096">
        <ele>1797.3</ele>
      </trkpt>
      <trkpt lat="44.7335" lon="5.64073">
        <ele>1790.8</ele>
      </trkpt>
      <trkpt lat="44.7334" lon="5.6405">
        <ele>1787.8</ele>
      </trkpt>
      <trkpt lat="44.73328" lon="5.64029">
        <ele>1784.7</ele>
      </trkpt>
      <trkpt lat="44.73323" lon="5.64008">
        <ele>1777.7</ele>
      </trkpt>
      <trkpt lat="44.73312" lon="5.63985">
        <ele>1772.8</ele>
      </trkpt>
      <trkpt lat="44.733" lon="5.63956">
        <ele>1764.1</ele>
      </trkpt>
      <trkpt lat="44.73295" lon="5.63926">
        <ele>1754.4</ele>
      </trkpt>
      <trkpt lat="44.73298" lon="5.63912">
        <ele>1751.4</ele>
      </trkpt>
      <trkpt lat="44.73299" lon="5.639">
        <ele>1749.7</ele>
      </trkpt>
      <trkpt lat="44.73301" lon="5.63888">
        <ele>1748.1</ele>
      </trkpt>
      <trkpt lat="44.73303" lon="5.63876">
        <ele>1746.2</ele>
      </trkpt>
      <trkpt lat="44.73302" lon="5.63863">
        <ele>1743.6</ele>
      </trkpt>
      <trkpt lat="44.73305" lon="5.63839">
        <ele>1741.4</ele>
      </trkpt>
      <trkpt lat="44.73313" lon="5.63825">
        <ele>1739</ele>
      </trkpt>
      <trkpt lat="44.73325" lon="5.63808">
        <ele>1737.5</ele>
      </trkpt>
      <trkpt lat="44.73339" lon="5.63792">
        <ele>1736.9</ele>
      </trkpt>
      <trkpt lat="44.73354" lon="5.63783">
        <ele>1733.9</ele>
      </trkpt>
      <trkpt lat="44.73365" lon="5.63773">
        <ele>1732.6</ele>
      </trkpt>
      <trkpt lat="44.73377" lon="5.63756">
        <ele>1731.6</ele>
      </trkpt>
      <trkpt lat="44.73387" lon="5.63736">
        <ele>1732.6</ele>
      </trkpt>
      <trkpt lat="44.73401" lon="5.63718">
        <ele>1731.7</ele>
      </trkpt>
      <trkpt lat="44.73412" lon="5.63704">
        <ele>1731</ele>
      </trkpt>
      <trkpt lat="44.73419" lon="5.63696">
        <ele>1730.4</ele>
      </trkpt>
      <trkpt lat="44.7343" lon="5.63684">
        <ele>1729.7</ele>
      </trkpt>
      <trkpt lat="44.73441" lon="5.63672">
        <ele>1728.9</ele>
      </trkpt>
      <trkpt lat="44.7346" lon="5.63654">
        <ele>1724.9</ele>
      </trkpt>
      <trkpt lat="44.7347" lon="5.63639">
        <ele>1725.1</ele>
      </trkpt>
      <trkpt lat="44.73477" lon="5.63629">
        <ele>1726.3</ele>
      </trkpt>
      <trkpt lat="44.73491" lon="5.63613">
        <ele>1726.6</ele>
      </trkpt>
      <trkpt lat="44.73504" lon="5.63602">
        <ele>1727.2</ele>
      </trkpt>
      <trkpt lat="44.73519" lon="5.63602">
        <ele>1720.1</ele>
      </trkpt>
      <trkpt lat="44.73526" lon="5.63594">
        <ele>1721.2</ele>
      </trkpt>
      <trkpt lat="44.73539" lon="5.63587">
        <ele>1718</ele>
      </trkpt>
      <trkpt lat="44.73556" lon="5.63574">
        <ele>1715.8</ele>
      </trkpt>
      <trkpt lat="44.73569" lon="5.63562">
        <ele>1717</ele>
      </trkpt>
      <trkpt lat="44.7358" lon="5.63551">
        <ele>1717.3</ele>
      </trkpt>
      <trkpt lat="44.73589" lon="5.63544">
        <ele>1717.4</ele>
      </trkpt>
      <trkpt lat="44.73605" lon="5.63533">
        <ele>1715.5</ele>
      </trkpt>
      <trkpt lat="44.73607" lon="5.63521">
        <ele>1719.2</ele>
      </trkpt>
      <trkpt lat="44.73622" lon="5.63508">
        <ele>1716.1</ele>
      </trkpt>
      <trkpt lat="44.73631" lon="5.63497">
        <ele>1715.5</ele>
      </trkpt>
      <trkpt lat="44.7364" lon="5.63485">
        <ele>1715.4</ele>
      </trkpt>
      <trkpt lat="44.73649" lon="5.63475">
        <ele>1714.6</ele>
      </trkpt>
      <trkpt lat="44.73658" lon="5.63464">
        <ele>1713.9</ele>
      </trkpt>
      <trkpt lat="44.73674" lon="5.63449">
        <ele>1712.7</ele>
      </trkpt>
      <trkpt lat="44.73686" lon="5.6344">
        <ele>1709.4</ele>
      </trkpt>
      <trkpt lat="44.7369" lon="5.63432">
        <ele>1708.7</ele>
      </trkpt>
      <trkpt lat="44.73691" lon="5.6342">
        <ele>1709.9</ele>
      </trkpt>
      <trkpt lat="44.73693" lon="5.63412">
        <ele>1709.4</ele>
      </trkpt>
      <trkpt lat="44.73696" lon="5.63388">
        <ele>1708.7</ele>
      </trkpt>
      <trkpt lat="44.73699" lon="5.63373">
        <ele>1709.4</ele>
      </trkpt>
      <trkpt lat="44.73716" lon="5.63356">
        <ele>1709.8</ele>
      </trkpt>
      <trkpt lat="44.73728" lon="5.63346">
        <ele>1710.9</ele>
      </trkpt>
      <trkpt lat="44.7374" lon="5.63336">
        <ele>1712.1</ele>
      </trkpt>
      <trkpt lat="44.73753" lon="5.63327">
        <ele>1712.5</ele>
      </trkpt>
      <trkpt lat="44.73771" lon="5.63309">
        <ele>1714.8</ele>
      </trkpt>
      <trkpt lat="44.73776" lon="5.633">
        <ele>1717</ele>
      </trkpt>
      <trkpt lat="44.73778" lon="5.63286">
        <ele>1720.2</ele>
      </trkpt>
      <trkpt lat="44.73792" lon="5.63269">
        <ele>1721.6</ele>
      </trkpt>
      <trkpt lat="44.73804" lon="5.63255">
        <ele>1724.5</ele>
      </trkpt>
      <trkpt lat="44.73815" lon="5.63246">
        <ele>1725.8</ele>
      </trkpt>
      <trkpt lat="44.73825" lon="5.63237">
        <ele>1727</ele>
      </trkpt>
      <trkpt lat="44.73838" lon="5.63221">
        <ele>1731</ele>
      </trkpt>
      <trkpt lat="44.73847" lon="5.63206">
        <ele>1733.7</ele>
      </trkpt>
      <trkpt lat="44.73856" lon="5.63194">
        <ele>1738</ele>
      </trkpt>
      <trkpt lat="44.73863" lon="5.63185">
        <ele>1740.6</ele>
      </trkpt>
      <trkpt lat="44.73873" lon="5.63175">
        <ele>1742.8</ele>
      </trkpt>
      <trkpt lat="44.73876" lon="5.63163">
        <ele>1745.4</ele>
      </trkpt>
      <trkpt lat="44.73885" lon="5.63144">
        <ele>1749.2</ele>
      </trkpt>
      <trkpt lat="44.73892" lon="5.63137">
        <ele>1750</ele>
      </trkpt>
      <trkpt lat="44.73908" lon="5.63128">
        <ele>1747.4</ele>
      </trkpt>
      <trkpt lat="44.73919" lon="5.6312">
        <ele>1746.5</ele>
      </trkpt>
      <trkpt lat="44.73926" lon="5.63116">
        <ele>1745.6</ele>
      </trkpt>
      <trkpt lat="44.73937" lon="5.6311">
        <ele>1744.5</ele>
      </trkpt>
      <trkpt lat="44.73949" lon="5.63103">
        <ele>1742.1</ele>
      </trkpt>
      <trkpt lat="44.73964" lon="5.63095">
        <ele>1740.8</ele>
      </trkpt>
      <trkpt lat="44.73975" lon="5.63082">
        <ele>1742.2</ele>
      </trkpt>
      <trkpt lat="44.73989" lon="5.63074">
        <ele>1740.2</ele>
      </trkpt>
      <trkpt lat="44.73999" lon="5.63064">
        <ele>1740.3</ele>
      </trkpt>
      <trkpt lat="44.74012" lon="5.63058">
        <ele>1740.5</ele>
      </trkpt>
      <trkpt lat="44.74026" lon="5.6305">
        <ele>1740.3</ele>
      </trkpt>
      <trkpt lat="44.74038" lon="5.63043">
        <ele>1739.6</ele>
      </trkpt>
      <trkpt lat="44.74051" lon="5.63036">
        <ele>1741.3</ele>
      </trkpt>
      <trkpt lat="44.74065" lon="5.6303">
        <ele>1743.1</ele>
      </trkpt>
      <trkpt lat="44.74075" lon="5.63026">
        <ele>1743.9</ele>
      </trkpt>
      <trkpt lat="44.74085" lon="5.63019">
        <ele>1744.3</ele>
      </trkpt>
      <trkpt lat="44.74094" lon="5.63014">
        <ele>1744.9</ele>
      </trkpt>
      <trkpt lat="44.74111" lon="5.63007">
        <ele>1747.8</ele>
      </trkpt>
      <trkpt lat="44.74123" lon="5.63004">
        <ele>1749.4</ele>
      </trkpt>
      <trkpt lat="44.74137" lon="5.62999">
        <ele>1751.7</ele>
      </trkpt>
      <trkpt lat="44.7415" lon="5.62995">
        <ele>1751.8</ele>
      </trkpt>
      <trkpt lat="44.74162" lon="5.6299">
        <ele>1752.8</ele>
      </trkpt>
      <trkpt lat="44.74177" lon="5.62985">
        <ele>1755</ele>
      </trkpt>
      <trkpt lat="44.74189" lon="5.62982">
        <ele>1757.4</ele>
      </trkpt>
      <trkpt lat="44.74201" lon="5.62979">
        <ele>1759.7</ele>
      </trkpt>
      <trkpt lat="44.74214" lon="5.62973">
        <ele>1763.4</ele>
      </trkpt>
      <trkpt lat="44.74227" lon="5.62968">
        <ele>1764.3</ele>
      </trkpt>
      <trkpt lat="44.74244" lon="5.62955">
        <ele>1765.6</ele>
      </trkpt>
      <trkpt lat="44.7426" lon="5.62949">
        <ele>1767.9</ele>
      </trkpt>
      <trkpt lat="44.74277" lon="5.62943">
        <ele>1769.6</ele>
      </trkpt>
      <trkpt lat="44.7429" lon="5.62941">
        <ele>1768.9</ele>
      </trkpt>
      <trkpt lat="44.74302" lon="5.6294">
        <ele>1768.3</ele>
      </trkpt>
      <trkpt lat="44.74318" lon="5.6294">
        <ele>1767.8</ele>
      </trkpt>
      <trkpt lat="44.7433" lon="5.62939">
        <ele>1767.5</ele>
      </trkpt>
      <trkpt lat="44.74344" lon="5.62937">
        <ele>1766.8</ele>
      </trkpt>
      <trkpt lat="44.74356" lon="5.62936">
        <ele>1766.2</ele>
      </trkpt>
      <trkpt lat="44.74374" lon="5.62932">
        <ele>1765</ele>
      </trkpt>
      <trkpt lat="44.74389" lon="5.6293">
        <ele>1764.1</ele>
      </trkpt>
      <trkpt lat="44.74405" lon="5.62927">
        <ele>1763.4</ele>
      </trkpt>
      <trkpt lat="44.74417" lon="5.62925">
        <ele>1762.9</ele>
      </trkpt>
      <trkpt lat="44.7443" lon="5.62923">
        <ele>1761.6</ele>
      </trkpt>
      <trkpt lat="44.74445" lon="5.62921">
        <ele>1760.4</ele>
      </trkpt>
      <trkpt lat="44.74457" lon="5.6292">
        <ele>1758</ele>
      </trkpt>
      <trkpt lat="44.74471" lon="5.62916">
        <ele>1756.2</ele>
      </trkpt>
      <trkpt lat="44.74486" lon="5.62912">
        <ele>1753.4</ele>
      </trkpt>
      <trkpt lat="44.74509" lon="5.62907">
        <ele>1751</ele>
      </trkpt>
      <trkpt lat="44.74524" lon="5.62906">
        <ele>1750.4</ele>
      </trkpt>
      <trkpt lat="44.7454" lon="5.62906">
        <ele>1750.6</ele>
      </trkpt>
      <trkpt lat="44.74554" lon="5.62906">
        <ele>1751</ele>
      </trkpt>
      <trkpt lat="44.74567" lon="5.62906">
        <ele>1751.1</ele>
      </trkpt>
      <trkpt lat="44.74584" lon="5.62902">
        <ele>1751.6</ele>
      </trkpt>
      <trkpt lat="44.74601" lon="5.62896">
        <ele>1751.2</ele>
      </trkpt>
      <trkpt lat="44.74613" lon="5.62889">
        <ele>1752.3</ele>
      </trkpt>
      <trkpt lat="44.74626" lon="5.62882">
        <ele>1747.3</ele>
      </trkpt>
      <trkpt lat="44.7464" lon="5.62874">
        <ele>1744.2</ele>
      </trkpt>
      <trkpt lat="44.74656" lon="5.62862">
        <ele>1742.3</ele>
      </trkpt>
      <trkpt lat="44.74666" lon="5.62853">
        <ele>1740.5</ele>
      </trkpt>
      <trkpt lat="44.74681" lon="5.62846">
        <ele>1736.8</ele>
      </trkpt>
      <trkpt lat="44.74694" lon="5.62839">
        <ele>1735.6</ele>
      </trkpt>
      <trkpt lat="44.74708" lon="5.62833">
        <ele>1734.1</ele>
      </trkpt>
      <trkpt lat="44.74722" lon="5.62826">
        <ele>1731.5</ele>
      </trkpt>
      <trkpt lat="44.74739" lon="5.6282">
        <ele>1730.4</ele>
      </trkpt>
      <trkpt lat="44.74756" lon="5.62814">
        <ele>1730.4</ele>
      </trkpt>
      <trkpt lat="44.7477" lon="5.62807">
        <ele>1731.3</ele>
      </trkpt>
      <trkpt lat="44.74784" lon="5.628">
        <ele>1729.8</ele>
      </trkpt>
      <trkpt lat="44.74797" lon="5.62793">
        <ele>1728.3</ele>
      </trkpt>
      <trkpt lat="44.7481" lon="5.62786">
        <ele>1728.1</ele>
      </trkpt>
      <trkpt lat="44.74832" lon="5.62782">
        <ele>1727.5</ele>
      </trkpt>
      <trkpt lat="44.74851" lon="5.62775">
        <ele>1727</ele>
      </trkpt>
      <trkpt lat="44.7487" lon="5.6277">
        <ele>1724.1</ele>
      </trkpt>
      <trkpt lat="44.74885" lon="5.62759">
        <ele>1724.5</ele>
      </trkpt>
      <trkpt lat="44.74903" lon="5.62753">
        <ele>1725.9</ele>
      </trkpt>
      <trkpt lat="44.74923" lon="5.62745">
        <ele>1727.8</ele>
      </trkpt>
      <trkpt lat="44.74946" lon="5.62729">
        <ele>1732.7</ele>
      </trkpt>
      <trkpt lat="44.74958" lon="5.62718">
        <ele>1734</ele>
      </trkpt>
      <trkpt lat="44.74973" lon="5.62704">
        <ele>1736</ele>
      </trkpt>
      <trkpt lat="44.74986" lon="5.62693">
        <ele>1738.5</ele>
      </trkpt>
      <trkpt lat="44.74998" lon="5.62681">
        <ele>1740.6</ele>
      </trkpt>
      <trkpt lat="44.7501" lon="5.62671">
        <ele>1743.5</ele>
      </trkpt>
      <trkpt lat="44.75023" lon="5.62668">
        <ele>1746</ele>
      </trkpt>
      <trkpt lat="44.75037" lon="5.62662">
        <ele>1749.6</ele>
      </trkpt>
      <trkpt lat="44.75048" lon="5.6266">
        <ele>1752.7</ele>
      </trkpt>
      <trkpt lat="44.75064" lon="5.62661">
        <ele>1758.6</ele>
      </trkpt>
      <trkpt lat="44.75075" lon="5.62667">
        <ele>1763.6</ele>
      </trkpt>
      <trkpt lat="44.75083" lon="5.62671">
        <ele>1766.9</ele>
      </trkpt>
      <trkpt lat="44.75098" lon="5.62677">
        <ele>1771.9</ele>
      </trkpt>
      <trkpt lat="44.75122" lon="5.62683">
        <ele>1779.7</ele>
      </trkpt>
      <trkpt lat="44.75135" lon="5.62684">
        <ele>1783.6</ele>
      </trkpt>
      <trkpt lat="44.75147" lon="5.62686">
        <ele>1787.1</ele>
      </trkpt>
      <trkpt lat="44.75163" lon="5.62691">
        <ele>1791.8</ele>
      </trkpt>
      <trkpt lat="44.75177" lon="5.62695">
        <ele>1795.9</ele>
      </trkpt>
      <trkpt lat="44.7519" lon="5.62698">
        <ele>1798.4</ele>
      </trkpt>
      <trkpt lat="44.75205" lon="5.62703">
        <ele>1801.1</ele>
      </trkpt>
      <trkpt lat="44.75227" lon="5.62707">
        <ele>1805.4</ele>
      </trkpt>
      <trkpt lat="44.75248" lon="5.62706">
        <ele>1807.4</ele>
      </trkpt>
      <trkpt lat="44.75265" lon="5.6269">
        <ele>1813.3</ele>
      </trkpt>
      <trkpt lat="44.75274" lon="5.62674">
        <ele>1819.9</ele>
      </trkpt>
      <trkpt lat="44.75282" lon="5.62661">
        <ele>1825.1</ele>
      </trkpt>
      <trkpt lat="44.75289" lon="5.62649">
        <ele>1829.1</ele>
      </trkpt>
      <trkpt lat="44.75293" lon="5.6264">
        <ele>1833.2</ele>
      </trkpt>
      <trkpt lat="44.75306" lon="5.62627">
        <ele>1840.3</ele>
      </trkpt>
      <trkpt lat="44.75322" lon="5.62611">
        <ele>1847.9</ele>
      </trkpt>
      <trkpt lat="44.75331" lon="5.62598">
        <ele>1855.1</ele>
      </trkpt>
      <trkpt lat="44.75341" lon="5.6258">
        <ele>1862.3</ele>
      </trkpt>
      <trkpt lat="44.75351" lon="5.62564">
        <ele>1869</ele>
      </trkpt>
      <trkpt lat="44.75358" lon="5.62544">
        <ele>1877.8</ele>
      </trkpt>
      <trkpt lat="44.75363" lon="5.62528">
        <ele>1883.5</ele>
      </trkpt>
      <trkpt lat="44.7537" lon="5.62511">
        <ele>1885.9</ele>
      </trkpt>
      <trkpt lat="44.75376" lon="5.62497">
        <ele>1889.4</ele>
      </trkpt>
      <trkpt lat="44.75381" lon="5.62481">
        <ele>1892.2</ele>
      </trkpt>
      <trkpt lat="44.75381" lon="5.6246">
        <ele>1893</ele>
      </trkpt>
      <trkpt lat="44.75381" lon="5.62437">
        <ele>1891.7</ele>
      </trkpt>
      <trkpt lat="44.75382" lon="5.62412">
        <ele>1890.4</ele>
      </trkpt>
      <trkpt lat="44.75382" lon="5.62388">
        <ele>1890.1</ele>
      </trkpt>
      <trkpt lat="44.75384" lon="5.62357">
        <ele>1889.5</ele>
      </trkpt>
      <trkpt lat="44.75383" lon="5.62332">
        <ele>1887.1</ele>
      </trkpt>
      <trkpt lat="44.75382" lon="5.62316">
        <ele>1886.2</ele>
      </trkpt>
      <trkpt lat="44.7538" lon="5.62299">
        <ele>1884.8</ele>
      </trkpt>
      <trkpt lat="44.75379" lon="5.62282">
        <ele>1883.1</ele>
      </trkpt>
      <trkpt lat="44.75384" lon="5.6226">
        <ele>1883.9</ele>
      </trkpt>
      <trkpt lat="44.75388" lon="5.62241">
        <ele>1884</ele>
      </trkpt>
      <trkpt lat="44.75392" lon="5.62221">
        <ele>1881.6</ele>
      </trkpt>
      <trkpt lat="44.75394" lon="5.62208">
        <ele>1879.6</ele>
      </trkpt>
      <trkpt lat="44.75399" lon="5.62191">
        <ele>1877.4</ele>
      </trkpt>
      <trkpt lat="44.75404" lon="5.62174">
        <ele>1876.4</ele>
      </trkpt>
      <trkpt lat="44.75405" lon="5.62147">
        <ele>1875.4</ele>
      </trkpt>
      <trkpt lat="44.75406" lon="5.62122">
        <ele>1873.5</ele>
      </trkpt>
      <trkpt lat="44.75404" lon="5.62101">
        <ele>1870.4</ele>
      </trkpt>
      <trkpt lat="44.75401" lon="5.62083">
        <ele>1866.5</ele>
      </trkpt>
      <trkpt lat="44.75402" lon="5.62064">
        <ele>1863.4</ele>
      </trkpt>
      <trkpt lat="44.75407" lon="5.62038">
        <ele>1858.9</ele>
      </trkpt>
      <trkpt lat="44.75414" lon="5.62021">
        <ele>1857.2</ele>
      </trkpt>
      <trkpt lat="44.7542" lon="5.62004">
        <ele>1854</ele>
      </trkpt>
      <trkpt lat="44.7543" lon="5.6199">
        <ele>1849.5</ele>
      </trkpt>
      <trkpt lat="44.75438" lon="5.61989">
        <ele>1848.9</ele>
      </trkpt>
      <trkpt lat="44.75461" lon="5.62">
        <ele>1847</ele>
      </trkpt>
      <trkpt lat="44.75461" lon="5.61987">
        <ele>1841.9</ele>
      </trkpt>
      <trkpt lat="44.75456" lon="5.61963">
        <ele>1833.7</ele>
      </trkpt>
      <trkpt lat="44.75452" lon="5.61946">
        <ele>1827.2</ele>
      </trkpt>
      <trkpt lat="44.75448" lon="5.6193">
        <ele>1821.2</ele>
      </trkpt>
      <trkpt lat="44.75448" lon="5.61919">
        <ele>1815.9</ele>
      </trkpt>
      <trkpt lat="44.75461" lon="5.61916">
        <ele>1810.2</ele>
      </trkpt>
      <trkpt lat="44.75474" lon="5.61917">
        <ele>1806.4</ele>
      </trkpt>
      <trkpt lat="44.75483" lon="5.61912">
        <ele>1801.4</ele>
      </trkpt>
      <trkpt lat="44.75482" lon="5.61902">
        <ele>1797.8</ele>
      </trkpt>
      <trkpt lat="44.75498" lon="5.61902">
        <ele>1792.4</ele>
      </trkpt>
      <trkpt lat="44.75493" lon="5.61881">
        <ele>1786.2</ele>
      </trkpt>
      <trkpt lat="44.7549" lon="5.61859">
        <ele>1779.7</ele>
      </trkpt>
      <trkpt lat="44.75483" lon="5.6184">
        <ele>1775.8</ele>
      </trkpt>
      <trkpt lat="44.75477" lon="5.61822">
        <ele>1771.3</ele>
      </trkpt>
      <trkpt lat="44.75474" lon="5.61808">
        <ele>1766.3</ele>
      </trkpt>
      <trkpt lat="44.75468" lon="5.6179">
        <ele>1761.2</ele>
      </trkpt>
      <trkpt lat="44.75462" lon="5.61776">
        <ele>1756.3</ele>
      </trkpt>
      <trkpt lat="44.75462" lon="5.61767">
        <ele>1752.7</ele>
      </trkpt>
      <trkpt lat="44.75459" lon="5.61757">
        <ele>1749</ele>
      </trkpt>
      <trkpt lat="44.75469" lon="5.61742">
        <ele>1742.4</ele>
      </trkpt>
      <trkpt lat="44.75483" lon="5.61731">
        <ele>1736.8</ele>
      </trkpt>
      <trkpt lat="44.75502" lon="5.61707">
        <ele>1726.2</ele>
      </trkpt>
      <trkpt lat="44.75504" lon="5.61693">
        <ele>1721.6</ele>
      </trkpt>
      <trkpt lat="44.75502" lon="5.6167">
        <ele>1714.7</ele>
      </trkpt>
      <trkpt lat="44.75502" lon="5.61655">
        <ele>1710.3</ele>
      </trkpt>
      <trkpt lat="44.75499" lon="5.61632">
        <ele>1704.1</ele>
      </trkpt>
      <trkpt lat="44.75496" lon="5.61603">
        <ele>1696.8</ele>
      </trkpt>
      <trkpt lat="44.75495" lon="5.61583">
        <ele>1691.7</ele>
      </trkpt>
      <trkpt lat="44.75497" lon="5.61564">
        <ele>1687.5</ele>
      </trkpt>
      <trkpt lat="44.75499" lon="5.61552">
        <ele>1685.3</ele>
      </trkpt>
      <trkpt lat="44.75498" lon="5.61531">
        <ele>1682.1</ele>
      </trkpt>
      <trkpt lat="44.75501" lon="5.61499">
        <ele>1676.6</ele>
      </trkpt>
      <trkpt lat="44.755" lon="5.61484">
        <ele>1674.7</ele>
      </trkpt>
      <trkpt lat="44.75501" lon="5.61477">
        <ele>1673.4</ele>
      </trkpt>
      <trkpt lat="44.75509" lon="5.61476">
        <ele>1671.1</ele>
      </trkpt>
      <trkpt lat="44.75509" lon="5.61446">
        <ele>1668.1</ele>
      </trkpt>
      <trkpt lat="44.75516" lon="5.61448">
        <ele>1666.8</ele>
      </trkpt>
      <trkpt lat="44.75523" lon="5.61457">
        <ele>1665.7</ele>
      </trkpt>
      <trkpt lat="44.7553" lon="5.61468">
        <ele>1664</ele>
      </trkpt>
      <trkpt lat="44.75532" lon="5.61481">
        <ele>1664.7</ele>
      </trkpt>
      <trkpt lat="44.75547" lon="5.61479">
        <ele>1658.2</ele>
      </trkpt>
      <trkpt lat="44.75554" lon="5.61457">
        <ele>1653.4</ele>
      </trkpt>
      <trkpt lat="44.7556" lon="5.61446">
        <ele>1650.1</ele>
      </trkpt>
      <trkpt lat="44.75563" lon="5.61432">
        <ele>1647.5</ele>
      </trkpt>
      <trkpt lat="44.75568" lon="5.61408">
        <ele>1643.1</ele>
      </trkpt>
      <trkpt lat="44.75572" lon="5.61384">
        <ele>1639.1</ele>
      </trkpt>
      <trkpt lat="44.75578" lon="5.61369">
        <ele>1635.2</ele>
      </trkpt>
      <trkpt lat="44.75588" lon="5.61351">
        <ele>1628.9</ele>
      </trkpt>
      <trkpt lat="44.75599" lon="5.61329">
        <ele>1621.4</ele>
      </trkpt>
      <trkpt lat="44.75604" lon="5.61314">
        <ele>1617.8</ele>
      </trkpt>
      <trkpt lat="44.75609" lon="5.61289">
        <ele>1613.7</ele>
      </trkpt>
      <trkpt lat="44.75614" lon="5.61266">
        <ele>1609.9</ele>
      </trkpt>
      <trkpt lat="44.75618" lon="5.61245">
        <ele>1606.8</ele>
      </trkpt>
      <trkpt lat="44.75625" lon="5.61216">
        <ele>1602</ele>
      </trkpt>
      <trkpt lat="44.75629" lon="5.61193">
        <ele>1597.8</ele>
      </trkpt>
      <trkpt lat="44.75633" lon="5.61172">
        <ele>1595</ele>
      </trkpt>
      <trkpt lat="44.75636" lon="5.61154">
        <ele>1592.9</ele>
      </trkpt>
      <trkpt lat="44.75641" lon="5.61134">
        <ele>1589.6</ele>
      </trkpt>
      <trkpt lat="44.75645" lon="5.61116">
        <ele>1587</ele>
      </trkpt>
      <trkpt lat="44.75652" lon="5.61095">
        <ele>1583</ele>
      </trkpt>
      <trkpt lat="44.75657" lon="5.61078">
        <ele>1580.1</ele>
      </trkpt>
      <trkpt lat="44.75663" lon="5.61061">
        <ele>1576.2</ele>
      </trkpt>
      <trkpt lat="44.75667" lon="5.61047">
        <ele>1573.6</ele>
      </trkpt>
      <trkpt lat="44.75679" lon="5.61023">
        <ele>1567.5</ele>
      </trkpt>
      <trkpt lat="44.75687" lon="5.61005">
        <ele>1563.4</ele>
      </trkpt>
      <trkpt lat="44.75695" lon="5.60987">
        <ele>1559.1</ele>
      </trkpt>
      <trkpt lat="44.75702" lon="5.6097">
        <ele>1556.3</ele>
      </trkpt>
      <trkpt lat="44.75708" lon="5.60957">
        <ele>1554.6</ele>
      </trkpt>
      <trkpt lat="44.75714" lon="5.6095">
        <ele>1552.9</ele>
      </trkpt>
      <trkpt lat="44.75728" lon="5.60944">
        <ele>1548.2</ele>
      </trkpt>
      <trkpt lat="44.75747" lon="5.60936">
        <ele>1542.8</ele>
      </trkpt>
      <trkpt lat="44.75759" lon="5.60924">
        <ele>1541.1</ele>
      </trkpt>
      <trkpt lat="44.75766" lon="5.60914">
        <ele>1540.7</ele>
      </trkpt>
      <trkpt lat="44.75772" lon="5.60896">
        <ele>1539.4</ele>
      </trkpt>
      <trkpt lat="44.75776" lon="5.60869">
        <ele>1536.1</ele>
      </trkpt>
      <trkpt lat="44.75777" lon="5.6085">
        <ele>1533.4</ele>
      </trkpt>
      <trkpt lat="44.75774" lon="5.60841">
        <ele>1532</ele>
      </trkpt>
      <trkpt lat="44.75764" lon="5.60832">
        <ele>1530.2</ele>
      </trkpt>
      <trkpt lat="44.7576" lon="5.60825">
        <ele>1528.7</ele>
      </trkpt>
      <trkpt lat="44.75758" lon="5.60819">
        <ele>1527.5</ele>
      </trkpt>
      <trkpt lat="44.75744" lon="5.60816">
        <ele>1527.5</ele>
      </trkpt>
      <trkpt lat="44.75736" lon="5.60801">
        <ele>1525.6</ele>
      </trkpt>
      <trkpt lat="44.75732" lon="5.6078">
        <ele>1522</ele>
      </trkpt>
      <trkpt lat="44.75729" lon="5.60762">
        <ele>1519.7</ele>
      </trkpt>
      <trkpt lat="44.75726" lon="5.60742">
        <ele>1517.5</ele>
      </trkpt>
      <trkpt lat="44.75724" lon="5.60725">
        <ele>1516</ele>
      </trkpt>
      <trkpt lat="44.75723" lon="5.60709">
        <ele>1513.9</ele>
      </trkpt>
      <trkpt lat="44.75722" lon="5.60696">
        <ele>1512.5</ele>
      </trkpt>
      <trkpt lat="44.75722" lon="5.60676">
        <ele>1509.5</ele>
      </trkpt>
      <trkpt lat="44.75722" lon="5.60661">
        <ele>1507.1</ele>
      </trkpt>
      <trkpt lat="44.75726" lon="5.60645">
        <ele>1502.8</ele>
      </trkpt>
      <trkpt lat="44.75727" lon="5.6062">
        <ele>1497.1</ele>
      </trkpt>
      <trkpt lat="44.75727" lon="5.60599">
        <ele>1492.5</ele>
      </trkpt>
      <trkpt lat="44.75726" lon="5.60574">
        <ele>1488</ele>
      </trkpt>
      <trkpt lat="44.75726" lon="5.60553">
        <ele>1484.9</ele>
      </trkpt>
      <trkpt lat="44.75725" lon="5.6053">
        <ele>1482</ele>
      </trkpt>
      <trkpt lat="44.75728" lon="5.60511">
        <ele>1478.6</ele>
      </trkpt>
      <trkpt lat="44.75731" lon="5.6049">
        <ele>1476</ele>
      </trkpt>
      <trkpt lat="44.75733" lon="5.60473">
        <ele>1474.4</ele>
      </trkpt>
      <trkpt lat="44.75737" lon="5.60454">
        <ele>1471.6</ele>
      </trkpt>
      <trkpt lat="44.75741" lon="5.60438">
        <ele>1469</ele>
      </trkpt>
      <trkpt lat="44.75749" lon="5.60414">
        <ele>1465.1</ele>
      </trkpt>
      <trkpt lat="44.75752" lon="5.60398">
        <ele>1463.3</ele>
      </trkpt>
      <trkpt lat="44.75751" lon="5.60376">
        <ele>1461</ele>
      </trkpt>
      <trkpt lat="44.75751" lon="5.60362">
        <ele>1459.1</ele>
      </trkpt>
      <trkpt lat="44.75756" lon="5.60362">
        <ele>1458.4</ele>
      </trkpt>
      <trkpt lat="44.75767" lon="5.60352">
        <ele>1454.7</ele>
      </trkpt>
      <trkpt lat="44.75777" lon="5.60342">
        <ele>1452.6</ele>
      </trkpt>
      <trkpt lat="44.75779" lon="5.60333">
        <ele>1451.5</ele>
      </trkpt>
      <trkpt lat="44.75779" lon="5.60315">
        <ele>1449.3</ele>
      </trkpt>
      <trkpt lat="44.75778" lon="5.6029">
        <ele>1444.8</ele>
      </trkpt>
      <trkpt lat="44.75776" lon="5.60269">
        <ele>1440.7</ele>
      </trkpt>
      <trkpt lat="44.75778" lon="5.60251">
        <ele>1439.5</ele>
      </trkpt>
      <trkpt lat="44.75782" lon="5.60225">
        <ele>1436.9</ele>
      </trkpt>
      <trkpt lat="44.75783" lon="5.60203">
        <ele>1435.2</ele>
      </trkpt>
      <trkpt lat="44.75775" lon="5.60188">
        <ele>1431.7</ele>
      </trkpt>
      <trkpt lat="44.7576" lon="5.60179">
        <ele>1425.7</ele>
      </trkpt>
      <trkpt lat="44.75744" lon="5.6017">
        <ele>1418.9</ele>
      </trkpt>
      <trkpt lat="44.75729" lon="5.60157">
        <ele>1411.9</ele>
      </trkpt>
      <trkpt lat="44.75726" lon="5.60166">
        <ele>1409.3</ele>
      </trkpt>
      <trkpt lat="44.75725" lon="5.60186">
        <ele>1406.4</ele>
      </trkpt>
      <trkpt lat="44.75725" lon="5.60209">
        <ele>1405.9</ele>
      </trkpt>
      <trkpt lat="44.75719" lon="5.60218">
        <ele>1403.4</ele>
      </trkpt>
      <trkpt lat="44.75705" lon="5.60231">
        <ele>1399.6</ele>
      </trkpt>
    </trkseg>
  </trk>
</gpx>